Observation data for Dozier on 12/09/2018      Previous  Date       Current Mesonet Observations  Soil Data  Daily Summary Page  Observations in Plain Language
KDO1 090600Z 34007KT M03/M11 A3033 RMK A01 T10251113  RH  051%=      5-min Rain = 0
KDO1 090601Z 34007KT M03/M11 A3033 RMK A01 T10251113  RH  051%=      5-min Rain = 0
KDO1 090602Z 34007KT M02/M11 A3033 RMK A01 T10241113  RH  050%=      5-min Rain = 0
KDO1 090603Z 34007KT M02/M11 A3033 RMK A01 T10241113  RH  050%=      5-min Rain = 0
KDO1 090604Z 34007KT M02/M11 A3033 RMK A01 T10241113  RH  050%=      5-min Rain = 0
KDO1 090605Z 34007KT M02/M11 A3033 RMK A01 T10241113  RH  050%=      5-min Rain = 0
KDO1 090606Z 34007KT M02/M11 A3033 RMK A01 T10241113  RH  050%=      5-min Rain = 0
KDO1 090607Z 34007KT M02/M11 A3033 RMK A01 T10231113  RH  050%=      5-min Rain = 0
KDO1 090608Z 34007KT M02/M11 A3033 RMK A01 T10231112  RH  050%=      5-min Rain = 0
KDO1 090609Z 33007KT M02/M11 A3033 RMK A01 T10231112  RH  050%=      5-min Rain = 0
KDO1 090610Z 33006KT M02/M11 A3033 RMK A01 T10231112  RH  050%=      5-min Rain = 0
KDO1 090611Z 34006KT M02/M11 A3033 RMK A01 T10231112  RH  050%=      5-min Rain = 0
KDO1 090612Z 34006KT M02/M11 A3033 RMK A01 T10221112  RH  050%=      5-min Rain = 0
KDO1 090613Z 34006KT M02/M11 A3033 RMK A01 T10231112  RH  050%=      5-min Rain = 0
KDO1 090614Z 34006KT M02/M11 A3033 RMK A01 T10231112  RH  051%=      5-min Rain = 0
KDO1 090615Z 34006KT M02/M11 A3033 RMK A01 T10231112  RH  051%=      5-min Rain = 0
KDO1 090616Z 34006KT M02/M11 A3033 RMK A01 T10231112  RH  051%=      5-min Rain = 0
KDO1 090617Z 34007KT M02/M11 A3033 RMK A01 T10231112  RH  051%=      5-min Rain = 0
KDO1 090618Z 34006KT M02/M11 A3033 RMK A01 T10231112  RH  050%=      5-min Rain = 0
KDO1 090619Z 34006KT M02/M11 A3033 RMK A01 T10231112  RH  050%=      5-min Rain = 0
KDO1 090620Z 34006KT M02/M11 A3033 RMK A01 T10231112  RH  051%=      5-min Rain = 0
KDO1 090621Z 34006KT M02/M11 A3033 RMK A01 T10231112  RH  051%=      5-min Rain = 0
KDO1 090622Z 34005KT M02/M11 A3033 RMK A01 T10241112  RH  051%=      5-min Rain = 0
KDO1 090623Z 34006KT M02/M11 A3033 RMK A01 T10241111  RH  051%=      5-min Rain = 0
KDO1 090624Z 34006KT M03/M11 A3033 RMK A01 T10251112  RH  051%=      5-min Rain = 0
KDO1 090625Z 34006KT M03/M11 A3033 RMK A01 T10251112  RH  052%=      5-min Rain = 0
KDO1 090626Z 34006KT M03/M11 A3033 RMK A01 T10251111  RH  052%=      5-min Rain = 0
KDO1 090627Z 34005KT M03/M11 A3033 RMK A01 T10251112  RH  052%=      5-min Rain = 0
KDO1 090628Z 34006KT M03/M11 A3033 RMK A01 T10251111  RH  052%=      5-min Rain = 0
KDO1 090629Z 34006KT M03/M11 A3033 RMK A01 T10261111  RH  052%=      5-min Rain = 0
KDO1 090630Z 35006KT M03/M11 A3033 RMK A01 T10261112  RH  052%=      5-min Rain = 0
KDO1 090631Z 35006KT M03/M11 A3033 RMK A01 T10271112  RH  052%=      5-min Rain = 0
KDO1 090632Z 35007KT M03/M11 A3033 RMK A01 T10271112  RH  052%=      5-min Rain = 0
KDO1 090633Z 34006KT M03/M11 A3033 RMK A01 T10271112  RH  052%=      5-min Rain = 0
KDO1 090634Z 34006KT M03/M11 A3033 RMK A01 T10271111  RH  052%=      5-min Rain = 0
KDO1 090635Z 35006KT M03/M11 A3033 RMK A01 T10271111  RH  052%=      5-min Rain = 0
KDO1 090636Z 34006KT M03/M11 A3033 RMK A01 T10281111  RH  053%=      5-min Rain = 0
KDO1 090637Z 34006KT M03/M11 A3033 RMK A01 T10281111  RH  053%=      5-min Rain = 0
KDO1 090638Z 35006KT M03/M11 A3033 RMK A01 T10281111  RH  053%=      5-min Rain = 0
KDO1 090639Z 35006KT M03/M11 A3033 RMK A01 T10281111  RH  053%=      5-min Rain = 0
KDO1 090640Z 35006KT M03/M11 A3033 RMK A01 T10281112  RH  053%=      5-min Rain = 0
KDO1 090641Z 35006KT M03/M11 A3033 RMK A01 T10291111  RH  053%=      5-min Rain = 0
KDO1 090642Z 34006KT M03/M11 A3033 RMK A01 T10301112  RH  053%=      5-min Rain = 0
KDO1 090643Z 34006KT M03/M11 A3033 RMK A01 T10301111  RH  054%=      5-min Rain = 0
KDO1 090644Z 34006KT M03/M11 A3033 RMK A01 T10311111  RH  054%=      5-min Rain = 0
KDO1 090645Z 34006KT M03/M11 A3033 RMK A01 T10311111  RH  054%=      5-min Rain = 0
KDO1 090646Z 34006KT M03/M11 A3033 RMK A01 T10311111  RH  054%=      5-min Rain = 0
KDO1 090647Z 34006KT M03/M11 A3033 RMK A01 T10321111  RH  054%=      5-min Rain = 0
KDO1 090648Z 34006KT M03/M11 A3033 RMK A01 T10321111  RH  054%=      5-min Rain = 0
KDO1 090649Z 34006KT M03/M11 A3033 RMK A01 T10321111  RH  055%=      5-min Rain = 0
KDO1 090650Z 34005KT M03/M11 A3033 RMK A01 T10321110  RH  055%=      5-min Rain = 0
KDO1 090651Z 34005KT M03/M11 A3033 RMK A01 T10321111  RH  055%=      5-min Rain = 0
KDO1 090652Z 34005KT M03/M11 A3033 RMK A01 T10331111  RH  055%=      5-min Rain = 0
KDO1 090653Z 34005KT M03/M11 A3033 RMK A01 T10331111  RH  055%=      5-min Rain = 0
KDO1 090654Z 34005KT M03/M11 A3033 RMK A01 T10331111  RH  055%=      5-min Rain = 0
KDO1 090655Z 34005KT M03/M11 A3033 RMK A01 T10331111  RH  055%=      5-min Rain = 0
KDO1 090656Z 33004KT M03/M11 A3033 RMK A01 T10341111  RH  055%=      5-min Rain = 0
KDO1 090657Z 33005KT M03/M11 A3033 RMK A01 T10341110  RH  056%=      5-min Rain = 0
KDO1 090658Z 33005KT M04/M11 A3033 RMK A01 T10351110  RH  056%=      5-min Rain = 0
KDO1 090659Z 33005KT M03/M11 A3033 RMK A01 T10341110  RH  056%=      5-min Rain = 0
KDO1 090700Z 33005KT M04/M11 A3033 RMK A01 T10351110  RH  056%=      5-min Rain = 0
KDO1 090701Z 33006KT M04/M11 A3033 RMK A01 T10351110  RH  056%=      5-min Rain = 0
KDO1 090702Z 33005KT M03/M11 A3033 RMK A01 T10341110  RH  056%=      5-min Rain = 0
KDO1 090703Z 33006KT M03/M11 A3033 RMK A01 T10341110  RH  056%=      5-min Rain = 0
KDO1 090704Z 34006KT M03/M11 A3033 RMK A01 T10341110  RH  056%=      5-min Rain = 0
KDO1 090705Z 34006KT M04/M11 A3033 RMK A01 T10351110  RH  056%=      5-min Rain = 0
KDO1 090706Z 34006KT M04/M11 A3033 RMK A01 T10351110  RH  056%=      5-min Rain = 0
KDO1 090707Z 34006KT M04/M11 A3033 RMK A01 T10351110  RH  056%=      5-min Rain = 0
KDO1 090708Z 34006KT M04/M11 A3032 RMK A01 T10351110  RH  056%=      5-min Rain = 0
KDO1 090709Z 34005KT M04/M11 A3032 RMK A01 T10351110  RH  056%=      5-min Rain = 0
KDO1 090710Z 34005KT M04/M11 A3032 RMK A01 T10351110  RH  056%=      5-min Rain = 0
KDO1 090711Z 34005KT M04/M11 A3032 RMK A01 T10361110  RH  056%=      5-min Rain = 0
KDO1 090712Z 33005KT M04/M11 A3033 RMK A01 T10351110  RH  056%=      5-min Rain = 0
KDO1 090713Z 33006KT M04/M11 A3033 RMK A01 T10351110  RH  056%=      5-min Rain = 0
KDO1 090714Z 33006KT M04/M11 A3033 RMK A01 T10351111  RH  056%=      5-min Rain = 0
KDO1 090715Z 33006KT M04/M11 A3033 RMK A01 T10351110  RH  056%=      5-min Rain = 0
KDO1 090716Z 32006KT M04/M11 A3033 RMK A01 T10361110  RH  056%=      5-min Rain = 0
KDO1 090717Z 32006KT M04/M11 A3033 RMK A01 T10361110  RH  056%=      5-min Rain = 0
KDO1 090718Z 32006KT M04/M11 A3033 RMK A01 T10361110  RH  056%=      5-min Rain = 0
KDO1 090719Z 32006KT M04/M11 A3033 RMK A01 T10361110  RH  056%=      5-min Rain = 0
KDO1 090720Z 32007KT M04/M11 A3033 RMK A01 T10351110  RH  056%=      5-min Rain = 0
KDO1 090721Z 32007KT M03/M11 A3033 RMK A01 T10341110  RH  056%=      5-min Rain = 0
KDO1 090722Z 32007KT M03/M11 A3033 RMK A01 T10341110  RH  056%=      5-min Rain = 0
KDO1 090723Z 31006KT M03/M11 A3033 RMK A01 T10341110  RH  056%=      5-min Rain = 0
KDO1 090724Z 31006KT M03/M11 A3033 RMK A01 T10331109  RH  056%=      5-min Rain = 0
KDO1 090725Z 31006KT M03/M11 A3033 RMK A01 T10331109  RH  055%=      5-min Rain = 0
KDO1 090726Z 31006KT M03/M11 A3033 RMK A01 T10321110  RH  055%=      5-min Rain = 0
KDO1 090727Z 31006KT M03/M11 A3033 RMK A01 T10321110  RH  055%=      5-min Rain = 0
KDO1 090728Z 32007KT M03/M11 A3033 RMK A01 T10321110  RH  055%=      5-min Rain = 0
KDO1 090729Z 32008KT M03/M11 A3033 RMK A01 T10321110  RH  055%=      5-min Rain = 0
KDO1 090730Z 32007KT M03/M11 A3033 RMK A01 T10311110  RH  054%=      5-min Rain = 0
KDO1 090731Z 32008KT M03/M11 A3033 RMK A01 T10311111  RH  054%=      5-min Rain = 0
KDO1 090732Z 32007KT M03/M11 A3033 RMK A01 T10301111  RH  054%=      5-min Rain = 0
KDO1 090733Z 32007KT M03/M11 A3033 RMK A01 T10301111  RH  054%=      5-min Rain = 0
KDO1 090734Z 32007KT M03/M11 A3033 RMK A01 T10301111  RH  054%=      5-min Rain = 0
KDO1 090735Z 32007KT M03/M11 A3033 RMK A01 T10301111  RH  054%=      5-min Rain = 0
KDO1 090736Z 32007KT M03/M11 A3033 RMK A01 T10301110  RH  054%=      5-min Rain = 0
KDO1 090737Z 32006KT M03/M11 A3033 RMK A01 T10301111  RH  054%=      5-min Rain = 0
KDO1 090738Z 32007KT M03/M11 A3033 RMK A01 T10311111  RH  054%=      5-min Rain = 0
KDO1 090739Z 32006KT M03/M11 A3033 RMK A01 T10321111  RH  054%=      5-min Rain = 0
KDO1 090740Z 33007KT M03/M11 A3033 RMK A01 T10321111  RH  054%=      5-min Rain = 0
KDO1 090741Z 33007KT M03/M11 A3033 RMK A01 T10331111  RH  055%=      5-min Rain = 0
KDO1 090742Z 33006KT M03/M11 A3032 RMK A01 T10331111  RH  055%=      5-min Rain = 0
KDO1 090743Z 33006KT M03/M11 A3032 RMK A01 T10341111  RH  055%=      5-min Rain = 0
KDO1 090744Z 33006KT M03/M11 A3032 RMK A01 T10341110  RH  056%=      5-min Rain = 0
KDO1 090745Z 34006KT M04/M11 A3032 RMK A01 T10351110  RH  056%=      5-min Rain = 0
KDO1 090746Z 34006KT M04/M11 A3032 RMK A01 T10361110  RH  056%=      5-min Rain = 0
KDO1 090747Z 34006KT M04/M11 A3032 RMK A01 T10361110  RH  057%=      5-min Rain = 0
KDO1 090748Z 34006KT M04/M11 A3032 RMK A01 T10371110  RH  057%=      5-min Rain = 0
KDO1 090749Z 34006KT M04/M11 A3032 RMK A01 T10371110  RH  057%=      5-min Rain = 0
KDO1 090750Z 34006KT M04/M11 A3032 RMK A01 T10371110  RH  057%=      5-min Rain = 0
KDO1 090751Z 34005KT M04/M11 A3032 RMK A01 T10371110  RH  057%=      5-min Rain = 0
KDO1 090752Z 33006KT M04/M11 A3032 RMK A01 T10381110  RH  057%=      5-min Rain = 0
KDO1 090753Z 33006KT M04/M11 A3032 RMK A01 T10381110  RH  058%=      5-min Rain = 0
KDO1 090754Z 33006KT M04/M11 A3032 RMK A01 T10381109  RH  058%=      5-min Rain = 0
KDO1 090755Z 33006KT M04/M11 A3032 RMK A01 T10381109  RH  058%=      5-min Rain = 0
KDO1 090756Z 33006KT M04/M11 A3032 RMK A01 T10381109  RH  058%=      5-min Rain = 0
KDO1 090757Z 33006KT M04/M11 A3033 RMK A01 T10381109  RH  058%=      5-min Rain = 0
KDO1 090758Z 33007KT M04/M11 A3033 RMK A01 T10391109  RH  058%=      5-min Rain = 0
KDO1 090759Z 33006KT M04/M11 A3033 RMK A01 T10391109  RH  058%=      5-min Rain = 0
KDO1 090800Z 33006KT M04/M11 A3033 RMK A01 T10391109  RH  058%=      5-min Rain = 0
KDO1 090801Z 33006KT M04/M11 A3033 RMK A01 T10401109  RH  059%=      5-min Rain = 0
KDO1 090802Z 33006KT M04/M11 A3033 RMK A01 T10401108  RH  059%=      5-min Rain = 0
KDO1 090803Z 33005KT M04/M11 A3033 RMK A01 T10411108  RH  059%=      5-min Rain = 0
KDO1 090804Z 33005KT M04/M11 A3033 RMK A01 T10411109  RH  060%=      5-min Rain = 0
KDO1 090805Z 33005KT M04/M11 A3033 RMK A01 T10411108  RH  060%=      5-min Rain = 0
KDO1 090806Z 33005KT M04/M11 A3033 RMK A01 T10421108  RH  060%=      5-min Rain = 0
KDO1 090807Z 34005KT M04/M11 A3033 RMK A01 T10431108  RH  060%=      5-min Rain = 0
KDO1 090808Z 34004KT M04/M11 A3033 RMK A01 T10431108  RH  061%=      5-min Rain = 0
KDO1 090809Z 34004KT M04/M11 A3033 RMK A01 T10441107  RH  061%=      5-min Rain = 0
KDO1 090810Z 34005KT M05/M11 A3033 RMK A01 T10451107  RH  062%=      5-min Rain = 0
KDO1 090811Z 34004KT M05/M11 A3033 RMK A01 T10451107  RH  062%=      5-min Rain = 0
KDO1 090812Z 34005KT M05/M11 A3033 RMK A01 T10461108  RH  062%=      5-min Rain = 0
KDO1 090813Z 34005KT M05/M11 A3033 RMK A01 T10461108  RH  062%=      5-min Rain = 0
KDO1 090814Z 35004KT M05/M11 A3033 RMK A01 T10461109  RH  061%=      5-min Rain = 0
KDO1 090815Z 35004KT M05/M11 A3033 RMK A01 T10461110  RH  061%=      5-min Rain = 0
KDO1 090816Z 35004KT M05/M11 A3033 RMK A01 T10461111  RH  060%=      5-min Rain = 0
KDO1 090817Z 35004KT M05/M11 A3033 RMK A01 T10451111  RH  060%=      5-min Rain = 0
KDO1 090818Z 35004KT M05/M11 A3033 RMK A01 T10461111  RH  060%=      5-min Rain = 0
KDO1 090819Z 35004KT M05/M11 A3033 RMK A01 T10461111  RH  061%=      5-min Rain = 0
KDO1 090820Z 35004KT M05/M11 A3033 RMK A01 T10471111  RH  061%=      5-min Rain = 0
KDO1 090821Z 35004KT M05/M11 A3033 RMK A01 T10481111  RH  061%=      5-min Rain = 0
KDO1 090822Z 35004KT M05/M11 A3033 RMK A01 T10491111  RH  062%=      5-min Rain = 0
KDO1 090823Z 35005KT M05/M11 A3033 RMK A01 T10501112  RH  062%=      5-min Rain = 0
KDO1 090824Z 35005KT M05/M11 A3033 RMK A01 T10511111  RH  063%=      5-min Rain = 0
KDO1 090825Z 35005KT M05/M11 A3033 RMK A01 T10531111  RH  064%=      5-min Rain = 0
KDO1 090826Z 35005KT M05/M11 A3033 RMK A01 T10541111  RH  064%=      5-min Rain = 0
KDO1 090827Z 34005KT M06/M11 A3033 RMK A01 T10551111  RH  065%=      5-min Rain = 0
KDO1 090828Z 34005KT M06/M11 A3033 RMK A01 T10551110  RH  066%=      5-min Rain = 0
KDO1 090829Z 34006KT M06/M11 A3033 RMK A01 T10561110  RH  066%=      5-min Rain = 0
KDO1 090830Z 34006KT M06/M11 A3033 RMK A01 T10561110  RH  066%=      5-min Rain = 0
KDO1 090831Z 34006KT M06/M11 A3033 RMK A01 T10571110  RH  066%=      5-min Rain = 0
KDO1 090832Z 34005KT M06/M11 A3033 RMK A01 T10571110  RH  066%=      5-min Rain = 0
KDO1 090833Z 34005KT M06/M11 A3033 RMK A01 T10571109  RH  066%=      5-min Rain = 0
KDO1 090834Z 34005KT M06/M11 A3033 RMK A01 T10571109  RH  067%=      5-min Rain = 0
KDO1 090835Z 34005KT M06/M11 A3033 RMK A01 T10571109  RH  067%=      5-min Rain = 0
KDO1 090836Z 35006KT M06/M11 A3033 RMK A01 T10571109  RH  067%=      5-min Rain = 0
KDO1 090837Z 35006KT M06/M11 A3033 RMK A01 T10571109  RH  066%=      5-min Rain = 0
KDO1 090838Z 35006KT M06/M11 A3033 RMK A01 T10561109  RH  066%=      5-min Rain = 0
KDO1 090839Z 35006KT M06/M11 A3033 RMK A01 T10561109  RH  066%=      5-min Rain = 0
KDO1 090840Z 34007KT M06/M11 A3033 RMK A01 T10561109  RH  066%=      5-min Rain = 0
KDO1 090841Z 34007KT M06/M11 A3033 RMK A01 T10561109  RH  066%=      5-min Rain = 0
KDO1 090842Z 34007KT M06/M11 A3033 RMK A01 T10561109  RH  066%=      5-min Rain = 0
KDO1 090843Z 34007KT M06/M11 A3033 RMK A01 T10551108  RH  066%=      5-min Rain = 0
KDO1 090844Z 35007KT M06/M11 A3033 RMK A01 T10561109  RH  066%=      5-min Rain = 0
KDO1 090845Z 35007KT M06/M11 A3033 RMK A01 T10551109  RH  066%=      5-min Rain = 0
KDO1 090846Z 35007KT M06/M11 A3033 RMK A01 T10561109  RH  066%=      5-min Rain = 0
KDO1 090847Z 35007KT M06/M11 A3033 RMK A01 T10551109  RH  066%=      5-min Rain = 0
KDO1 090848Z 35007KT M06/M11 A3033 RMK A01 T10551109  RH  066%=      5-min Rain = 0
KDO1 090849Z 34007KT M06/M11 A3033 RMK A01 T10551109  RH  066%=      5-min Rain = 0
KDO1 090850Z 35007KT M06/M11 A3033 RMK A01 T10551109  RH  066%=      5-min Rain = 0
KDO1 090851Z 35007KT M06/M11 A3033 RMK A01 T10551109  RH  066%=      5-min Rain = 0
KDO1 090852Z 35008KT M05/M11 A3033 RMK A01 T10541108  RH  066%=      5-min Rain = 0
KDO1 090853Z 35008KT M06/M11 A3033 RMK A01 T10551109  RH  066%=      5-min Rain = 0
KDO1 090854Z 35008KT M06/M11 A3033 RMK A01 T10551109  RH  066%=      5-min Rain = 0
KDO1 090855Z 34008KT M06/M11 A3033 RMK A01 T10551109  RH  066%=      5-min Rain = 0
KDO1 090856Z 34007KT M05/M11 A3033 RMK A01 T10541108  RH  065%=      5-min Rain = 0
KDO1 090857Z 34007KT M05/M11 A3033 RMK A01 T10531108  RH  065%=      5-min Rain = 0
KDO1 090858Z 34007KT M05/M11 A3033 RMK A01 T10531109  RH  065%=      5-min Rain = 0
KDO1 090859Z 34006KT M05/M11 A3033 RMK A01 T10521109  RH  065%=      5-min Rain = 0
KDO1 090900Z 34006KT M05/M11 A3033 RMK A01 T10521108  RH  065%=      5-min Rain = 0
KDO1 090901Z 34007KT M05/M11 A3033 RMK A01 T10521108  RH  065%=      5-min Rain = 0
KDO1 090902Z 34007KT M05/M11 A3033 RMK A01 T10521108  RH  065%=      5-min Rain = 0
KDO1 090903Z 34007KT M05/M11 A3033 RMK A01 T10531108  RH  065%=      5-min Rain = 0
KDO1 090904Z 34006KT M05/M11 A3033 RMK A01 T10531108  RH  065%=      5-min Rain = 0
KDO1 090905Z 33006KT M05/M11 A3033 RMK A01 T10521108  RH  065%=      5-min Rain = 0
KDO1 090906Z 33006KT M05/M11 A3033 RMK A01 T10521108  RH  065%=      5-min Rain = 0
KDO1 090907Z 33006KT M05/M11 A3033 RMK A01 T10521108  RH  065%=      5-min Rain = 0
KDO1 090908Z 33006KT M05/M11 A3033 RMK A01 T10511108  RH  064%=      5-min Rain = 0
KDO1 090909Z 33006KT M05/M11 A3033 RMK A01 T10491107  RH  064%=      5-min Rain = 0
KDO1 090910Z 33006KT M05/M11 A3033 RMK A01 T10481107  RH  063%=      5-min Rain = 0
KDO1 090911Z 33006KT M05/M11 A3033 RMK A01 T10471107  RH  063%=      5-min Rain = 0
KDO1 090912Z 33006KT M05/M11 A3033 RMK A01 T10461106  RH  063%=      5-min Rain = 0
KDO1 090913Z 33007KT M05/M11 A3033 RMK A01 T10461106  RH  063%=      5-min Rain = 0
KDO1 090914Z 34007KT M05/M11 A3033 RMK A01 T10461106  RH  063%=      5-min Rain = 0
KDO1 090915Z 34007KT M05/M11 A3033 RMK A01 T10461106  RH  063%=      5-min Rain = 0
KDO1 090916Z 34007KT M05/M11 A3033 RMK A01 T10451106  RH  062%=      5-min Rain = 0
KDO1 090917Z 34007KT M05/M11 A3033 RMK A01 T10451106  RH  062%=      5-min Rain = 0
KDO1 090918Z 34007KT M04/M11 A3033 RMK A01 T10441106  RH  062%=      5-min Rain = 0
KDO1 090919Z 34007KT M04/M11 A3034 RMK A01 T10441106  RH  062%=      5-min Rain = 0
KDO1 090920Z 34006KT M04/M11 A3034 RMK A01 T10431107  RH  061%=      5-min Rain = 0
KDO1 090921Z 33005KT M04/M11 A3034 RMK A01 T10431107  RH  061%=      5-min Rain = 0
KDO1 090922Z 33005KT M04/M11 A3034 RMK A01 T10431106  RH  061%=      5-min Rain = 0
KDO1 090923Z 33005KT M04/M11 A3034 RMK A01 T10431106  RH  061%=      5-min Rain = 0
KDO1 090924Z 33006KT M04/M11 A3034 RMK A01 T10431107  RH  061%=      5-min Rain = 0
KDO1 090925Z 33005KT M04/M11 A3034 RMK A01 T10431107  RH  061%=      5-min Rain = 0
KDO1 090926Z 33006KT M04/M11 A3034 RMK A01 T10431106  RH  061%=      5-min Rain = 0
KDO1 090927Z 33006KT M04/M11 A3034 RMK A01 T10431107  RH  061%=      5-min Rain = 0
KDO1 090928Z 33006KT M04/M11 A3034 RMK A01 T10431107  RH  061%=      5-min Rain = 0
KDO1 090929Z 34006KT M04/M11 A3033 RMK A01 T10431107  RH  061%=      5-min Rain = 0
KDO1 090930Z 34007KT M04/M11 A3034 RMK A01 T10431107  RH  061%=      5-min Rain = 0
KDO1 090931Z 34006KT M04/M11 A3034 RMK A01 T10431107  RH  061%=      5-min Rain = 0
KDO1 090932Z 33006KT M04/M11 A3034 RMK A01 T10431108  RH  061%=      5-min Rain = 0
KDO1 090933Z 33006KT M04/M11 A3034 RMK A01 T10431107  RH  061%=      5-min Rain = 0
KDO1 090934Z 33006KT M04/M11 A3034 RMK A01 T10431107  RH  061%=      5-min Rain = 0
KDO1 090935Z 33006KT M04/M11 A3034 RMK A01 T10421107  RH  061%=      5-min Rain = 0
KDO1 090936Z 33006KT M04/M11 A3034 RMK A01 T10421107  RH  060%=      5-min Rain = 0
KDO1 090937Z 33006KT M04/M11 A3034 RMK A01 T10421108  RH  060%=      5-min Rain = 0
KDO1 090938Z 34006KT M04/M11 A3034 RMK A01 T10421107  RH  060%=      5-min Rain = 0
KDO1 090939Z 34006KT M04/M11 A3034 RMK A01 T10411107  RH  060%=      5-min Rain = 0
KDO1 090940Z 34006KT M04/M11 A3034 RMK A01 T10421107  RH  061%=      5-min Rain = 0
KDO1 090941Z 34007KT M04/M11 A3034 RMK A01 T10421107  RH  061%=      5-min Rain = 0
KDO1 090942Z 34007KT M04/M11 A3034 RMK A01 T10431108  RH  060%=      5-min Rain = 0
KDO1 090943Z 34007KT M04/M11 A3034 RMK A01 T10431109  RH  060%=      5-min Rain = 0
KDO1 090944Z 34007KT M04/M11 A3034 RMK A01 T10431109  RH  060%=      5-min Rain = 0
KDO1 090945Z 34006KT M04/M11 A3034 RMK A01 T10431109  RH  060%=      5-min Rain = 0
KDO1 090946Z 34007KT M04/M11 A3034 RMK A01 T10431108  RH  060%=      5-min Rain = 0
KDO1 090947Z 34007KT M04/M11 A3034 RMK A01 T10421107  RH  061%=      5-min Rain = 0
KDO1 090948Z 34007KT M04/M11 A3034 RMK A01 T10421107  RH  060%=      5-min Rain = 0
KDO1 090949Z 34007KT M04/M11 A3034 RMK A01 T10421107  RH  060%=      5-min Rain = 0
KDO1 090950Z 34007KT M04/M11 A3034 RMK A01 T10411107  RH  060%=      5-min Rain = 0
KDO1 090951Z 33007KT M04/M11 A3034 RMK A01 T10401107  RH  060%=      5-min Rain = 0
KDO1 090952Z 33007KT M04/M11 A3034 RMK A01 T10391107  RH  059%=      5-min Rain = 0
KDO1 090953Z 33007KT M04/M11 A3034 RMK A01 T10401107  RH  059%=      5-min Rain = 0
KDO1 090954Z 33007KT M04/M11 A3034 RMK A01 T10391108  RH  059%=      5-min Rain = 0
KDO1 090955Z 33007KT M04/M11 A3034 RMK A01 T10391107  RH  059%=      5-min Rain = 0
KDO1 090956Z 33008KT M04/M11 A3033 RMK A01 T10381107  RH  059%=      5-min Rain = 0
KDO1 090957Z 33008KT M04/M11 A3033 RMK A01 T10391108  RH  059%=      5-min Rain = 0
KDO1 090958Z 33008KT M04/M11 A3033 RMK A01 T10381108  RH  059%=      5-min Rain = 0
KDO1 090959Z 33008KT M04/M11 A3033 RMK A01 T10381108  RH  059%=      5-min Rain = 0
KDO1 091000Z 34008KT M04/M11 A3033 RMK A01 T10381107  RH  059%=      5-min Rain = 0
KDO1 091001Z 34007KT M04/M11 A3033 RMK A01 T10381108  RH  058%=      5-min Rain = 0
KDO1 091002Z 34007KT M04/M11 A3033 RMK A01 T10381108  RH  058%=      5-min Rain = 0
KDO1 091003Z 34007KT M04/M11 A3033 RMK A01 T10381108  RH  058%=      5-min Rain = 0
KDO1 091004Z 34007KT M04/M11 A3033 RMK A01 T10381108  RH  058%=      5-min Rain = 0
KDO1 091005Z 34007KT M04/M11 A3033 RMK A01 T10381109  RH  058%=      5-min Rain = 0
KDO1 091006Z 34006KT M04/M11 A3033 RMK A01 T10381108  RH  058%=      5-min Rain = 0
KDO1 091007Z 33005KT M04/M11 A3033 RMK A01 T10391107  RH  059%=      5-min Rain = 0
KDO1 091008Z 33006KT M04/M11 A3033 RMK A01 T10391108  RH  059%=      5-min Rain = 0
KDO1 091009Z 33006KT M04/M11 A3033 RMK A01 T10401108  RH  059%=      5-min Rain = 0
KDO1 091010Z 33007KT M04/M11 A3033 RMK A01 T10391108  RH  059%=      5-min Rain = 0
KDO1 091011Z 33008KT M04/M11 A3033 RMK A01 T10391108  RH  059%=      5-min Rain = 0
KDO1 091012Z 33007KT M04/M11 A3033 RMK A01 T10391109  RH  059%=      5-min Rain = 0
KDO1 091013Z 33007KT M04/M11 A3033 RMK A01 T10391109  RH  058%=      5-min Rain = 0
KDO1 091014Z 33007KT M04/M11 A3033 RMK A01 T10391108  RH  058%=      5-min Rain = 0
KDO1 091015Z 33007KT M04/M11 A3033 RMK A01 T10391108  RH  058%=      5-min Rain = 0
KDO1 091016Z 33007KT M04/M11 A3033 RMK A01 T10391108  RH  058%=      5-min Rain = 0
KDO1 091017Z 33008KT M04/M11 A3033 RMK A01 T10381109  RH  058%=      5-min Rain = 0
KDO1 091018Z 33007KT M04/M11 A3033 RMK A01 T10371109  RH  058%=      5-min Rain = 0
KDO1 091019Z 33007KT M04/M11 A3033 RMK A01 T10371109  RH  057%=      5-min Rain = 0
KDO1 091020Z 33007KT M04/M11 A3033 RMK A01 T10371110  RH  057%=      5-min Rain = 0
KDO1 091021Z 33008KT M04/M11 A3033 RMK A01 T10371110  RH  057%=      5-min Rain = 0
KDO1 091022Z 33007KT M04/M11 A3033 RMK A01 T10371109  RH  057%=      5-min Rain = 0
KDO1 091023Z 33008KT M04/M11 A3033 RMK A01 T10371110  RH  057%=      5-min Rain = 0
KDO1 091024Z 33008KT M04/M11 A3033 RMK A01 T10361110  RH  057%=      5-min Rain = 0
KDO1 091025Z 33007KT M04/M11 A3033 RMK A01 T10371110  RH  057%=      5-min Rain = 0
KDO1 091026Z 33007KT M04/M11 A3033 RMK A01 T10361110  RH  057%=      5-min Rain = 0
KDO1 091027Z 33007KT M04/M11 A3033 RMK A01 T10361109  RH  057%=      5-min Rain = 0
KDO1 091028Z 33007KT M04/M11 A3033 RMK A01 T10361110  RH  057%=      5-min Rain = 0
KDO1 091029Z 34008KT M04/M11 A3033 RMK A01 T10361110  RH  057%=      5-min Rain = 0
KDO1 091030Z 33007KT M04/M11 A3033 RMK A01 T10361110  RH  057%=      5-min Rain = 0
KDO1 091031Z 34007KT M04/M11 A3033 RMK A01 T10361109  RH  057%=      5-min Rain = 0
KDO1 091032Z 34008KT M04/M11 A3033 RMK A01 T10361109  RH  057%=      5-min Rain = 0
KDO1 091033Z 34008KT M04/M11 A3033 RMK A01 T10361110  RH  057%=      5-min Rain = 0
KDO1 091034Z 33007KT M04/M11 A3033 RMK A01 T10361110  RH  056%=      5-min Rain = 0
KDO1 091035Z 33007KT M04/M11 A3033 RMK A01 T10361110  RH  057%=      5-min Rain = 0
KDO1 091036Z 33007KT M04/M11 A3033 RMK A01 T10361110  RH  057%=      5-min Rain = 0
KDO1 091037Z 33007KT M04/M11 A3033 RMK A01 T10361110  RH  057%=      5-min Rain = 0
KDO1 091038Z 33008KT M04/M11 A3033 RMK A01 T10361110  RH  057%=      5-min Rain = 0
KDO1 091039Z 33007KT M04/M11 A3033 RMK A01 T10361110  RH  057%=      5-min Rain = 0
KDO1 091040Z 33007KT M04/M11 A3033 RMK A01 T10361110  RH  057%=      5-min Rain = 0
KDO1 091041Z 33008KT M04/M11 A3033 RMK A01 T10361111  RH  056%=      5-min Rain = 0
KDO1 091042Z 33007KT M04/M11 A3033 RMK A01 T10361111  RH  056%=      5-min Rain = 0
KDO1 091043Z 33008KT M04/M11 A3033 RMK A01 T10361111  RH  056%=      5-min Rain = 0
KDO1 091044Z 33008KT M04/M11 A3033 RMK A01 T10361111  RH  056%=      5-min Rain = 0
KDO1 091045Z 34008KT M04/M11 A3033 RMK A01 T10361111  RH  056%=      5-min Rain = 0
KDO1 091046Z 34008KT M04/M11 A3033 RMK A01 T10361111  RH  056%=      5-min Rain = 0
KDO1 091047Z 34007KT M04/M11 A3033 RMK A01 T10361111  RH  056%=      5-min Rain = 0
KDO1 091048Z 33008KT M04/M11 A3033 RMK A01 T10361111  RH  056%=      5-min Rain = 0
KDO1 091049Z 34007KT M04/M11 A3033 RMK A01 T10361111  RH  056%=      5-min Rain = 0
KDO1 091050Z 34007KT M04/M11 A3033 RMK A01 T10361111  RH  056%=      5-min Rain = 0
KDO1 091051Z 34007KT M04/M11 A3033 RMK A01 T10371110  RH  057%=      5-min Rain = 0
KDO1 091052Z 34007KT M04/M11 A3033 RMK A01 T10371111  RH  057%=      5-min Rain = 0
KDO1 091053Z 34008KT M04/M11 A3033 RMK A01 T10371111  RH  057%=      5-min Rain = 0
KDO1 091054Z 33007KT M04/M11 A3033 RMK A01 T10371111  RH  057%=      5-min Rain = 0
KDO1 091055Z 34007KT M04/M11 A3033 RMK A01 T10381110  RH  057%=      5-min Rain = 0
KDO1 091056Z 34007KT M04/M11 A3033 RMK A01 T10391110  RH  058%=      5-min Rain = 0
KDO1 091057Z 34007KT M04/M11 A3033 RMK A01 T10391110  RH  058%=      5-min Rain = 0
KDO1 091058Z 34007KT M04/M11 A3033 RMK A01 T10401110  RH  058%=      5-min Rain = 0
KDO1 091059Z 34007KT M04/M11 A3033 RMK A01 T10401110  RH  058%=      5-min Rain = 0
KDO1 091100Z 34006KT M04/M11 A3033 RMK A01 T10401110  RH  058%=      5-min Rain = 0
KDO1 091101Z 34006KT M04/M11 A3033 RMK A01 T10411110  RH  059%=      5-min Rain = 0
KDO1 091102Z 34006KT M04/M11 A3033 RMK A01 T10421110  RH  059%=      5-min Rain = 0
KDO1 091103Z 34006KT M04/M11 A3033 RMK A01 T10431109  RH  060%=      5-min Rain = 0
KDO1 091104Z 34006KT M04/M11 A3033 RMK A01 T10441109  RH  060%=      5-min Rain = 0
KDO1 091105Z 34006KT M05/M11 A3033 RMK A01 T10451109  RH  061%=      5-min Rain = 0
KDO1 091106Z 34006KT M05/M11 A3033 RMK A01 T10461109  RH  061%=      5-min Rain = 0
KDO1 091107Z 33006KT M05/M11 A3033 RMK A01 T10471110  RH  062%=      5-min Rain = 0
KDO1 091108Z 34006KT M05/M11 A3033 RMK A01 T10481110  RH  062%=      5-min Rain = 0
KDO1 091109Z 33006KT M05/M11 A3033 RMK A01 T10491110  RH  062%=      5-min Rain = 0
KDO1 091110Z 33006KT M05/M11 A3033 RMK A01 T10491109  RH  063%=      5-min Rain = 0
KDO1 091111Z 33007KT M05/M11 A3033 RMK A01 T10501109  RH  063%=      5-min Rain = 0
KDO1 091112Z 33007KT M05/M11 A3033 RMK A01 T10501109  RH  064%=      5-min Rain = 0
KDO1 091113Z 33006KT M05/M11 A3033 RMK A01 T10491108  RH  063%=      5-min Rain = 0
KDO1 091114Z 33007KT M05/M11 A3033 RMK A01 T10481108  RH  063%=      5-min Rain = 0
KDO1 091115Z 33006KT M05/M11 A3033 RMK A01 T10471108  RH  063%=      5-min Rain = 0
KDO1 091116Z 34007KT M05/M11 A3033 RMK A01 T10471108  RH  062%=      5-min Rain = 0
KDO1 091117Z 33007KT M05/M11 A3033 RMK A01 T10461108  RH  062%=      5-min Rain = 0
KDO1 091118Z 33007KT M05/M11 A3033 RMK A01 T10451108  RH  061%=      5-min Rain = 0
KDO1 091119Z 33008KT M04/M11 A3033 RMK A01 T10441109  RH  061%=      5-min Rain = 0
KDO1 091120Z 33008KT M04/M11 A3033 RMK A01 T10441109  RH  061%=      5-min Rain = 0
KDO1 091121Z 33008KT M04/M11 A3033 RMK A01 T10431109  RH  060%=      5-min Rain = 0
KDO1 091122Z 33009KT M04/M11 A3033 RMK A01 T10431109  RH  060%=      5-min Rain = 0
KDO1 091123Z 33008KT M04/M11 A3033 RMK A01 T10421109  RH  059%=      5-min Rain = 0
KDO1 091124Z 33007KT M04/M11 A3033 RMK A01 T10421110  RH  059%=      5-min Rain = 0
KDO1 091125Z 33007KT M04/M11 A3033 RMK A01 T10411109  RH  059%=      5-min Rain = 0
KDO1 091126Z 33007KT M04/M11 A3033 RMK A01 T10411110  RH  059%=      5-min Rain = 0
KDO1 091127Z 33007KT M04/M11 A3033 RMK A01 T10411109  RH  059%=      5-min Rain = 0
KDO1 091128Z 33007KT M04/M11 A3033 RMK A01 T10411110  RH  059%=      5-min Rain = 0
KDO1 091129Z 33006KT M04/M11 A3033 RMK A01 T10411109  RH  059%=      5-min Rain = 0
KDO1 091130Z 32006KT M04/M11 A3033 RMK A01 T10411110  RH  059%=      5-min Rain = 0
KDO1 091131Z 32006KT M04/M11 A3033 RMK A01 T10421110  RH  059%=      5-min Rain = 0
KDO1 091132Z 32005KT M04/M11 A3033 RMK A01 T10421109  RH  059%=      5-min Rain = 0
KDO1 091133Z 32005KT M04/M11 A3033 RMK A01 T10421109  RH  059%=      5-min Rain = 0
KDO1 091134Z 32004KT M04/M11 A3033 RMK A01 T10421109  RH  060%=      5-min Rain = 0
KDO1 091135Z 31002KT M04/M11 A3034 RMK A01 T10431110  RH  060%=      5-min Rain = 0
KDO1 091136Z 30002KT M04/M11 A3034 RMK A01 T10431109  RH  060%=      5-min Rain = 0
KDO1 091137Z 31003KT M04/M11 A3034 RMK A01 T10431109  RH  060%=      5-min Rain = 0
KDO1 091138Z 31003KT M05/M11 A3034 RMK A01 T10451110  RH  060%=      5-min Rain = 0
KDO1 091139Z 32003KT M05/M11 A3034 RMK A01 T10461110  RH  061%=      5-min Rain = 0
KDO1 091140Z 32002KT M05/M11 A3034 RMK A01 T10471110  RH  061%=      5-min Rain = 0
KDO1 091141Z 33002KT M05/M11 A3034 RMK A01 T10471110  RH  062%=      5-min Rain = 0
KDO1 091142Z 32003KT M05/M11 A3034 RMK A01 T10481110  RH  062%=      5-min Rain = 0
KDO1 091143Z 32003KT M05/M11 A3034 RMK A01 T10491110  RH  062%=      5-min Rain = 0
KDO1 091144Z 32003KT M05/M11 A3034 RMK A01 T10491110  RH  063%=      5-min Rain = 0
KDO1 091145Z 32003KT M05/M11 A3034 RMK A01 T10501109  RH  063%=      5-min Rain = 0
KDO1 091146Z 32003KT M05/M11 A3034 RMK A01 T10501109  RH  063%=      5-min Rain = 0
KDO1 091147Z 33004KT M05/M11 A3034 RMK A01 T10511110  RH  063%=      5-min Rain = 0
KDO1 091148Z 33004KT M05/M11 A3034 RMK A01 T10511110  RH  063%=      5-min Rain = 0
KDO1 091149Z 34004KT M05/M11 A3034 RMK A01 T10511110  RH  063%=      5-min Rain = 0
KDO1 091150Z 34004KT M05/M11 A3034 RMK A01 T10511110  RH  063%=      5-min Rain = 0
KDO1 091151Z 34004KT M05/M11 A3034 RMK A01 T10511110  RH  063%=      5-min Rain = 0
KDO1 091152Z 35003KT M05/M11 A3034 RMK A01 T10501110  RH  063%=      5-min Rain = 0
KDO1 091153Z 35003KT M05/M11 A3034 RMK A01 T10501110  RH  063%=      5-min Rain = 0
KDO1 091154Z 35003KT M05/M11 A3034 RMK A01 T10501110  RH  063%=      5-min Rain = 0
KDO1 091155Z 35004KT M05/M11 A3034 RMK A01 T10501110  RH  062%=      5-min Rain = 0
KDO1 091156Z 35003KT M05/M11 A3034 RMK A01 T10501111  RH  062%=      5-min Rain = 0
KDO1 091157Z 35004KT M05/M11 A3034 RMK A01 T10501111  RH  062%=      5-min Rain = 0
KDO1 091158Z 35004KT M05/M11 A3033 RMK A01 T10501110  RH  063%=      5-min Rain = 0
KDO1 091159Z 34004KT M05/M11 A3033 RMK A01 T10501110  RH  063%=      5-min Rain = 0
KDO1 091200Z 34004KT M05/M11 A3033 RMK A01 T10511111  RH  063%=      5-min Rain = 0
KDO1 091201Z 34004KT M05/M11 A3033 RMK A01 T10521110  RH  063%=      5-min Rain = 0
KDO1 091202Z 34004KT M05/M11 A3033 RMK A01 T10531110  RH  064%=      5-min Rain = 0
KDO1 091203Z 34004KT M05/M11 A3033 RMK A01 T10541111  RH  064%=      5-min Rain = 0
KDO1 091204Z 33004KT M06/M11 A3033 RMK A01 T10551111  RH  065%=      5-min Rain = 0
KDO1 091205Z 33004KT M06/M11 A3033 RMK A01 T10561111  RH  066%=      5-min Rain = 0
KDO1 091206Z 33004KT M06/M11 A3033 RMK A01 T10581110  RH  067%=      5-min Rain = 0
KDO1 091207Z 33004KT M06/M11 A3033 RMK A01 T10601110  RH  068%=      5-min Rain = 0
KDO1 091208Z 33004KT M06/M11 A3033 RMK A01 T10611110  RH  068%=      5-min Rain = 0
KDO1 091209Z 33005KT M06/M11 A3033 RMK A01 T10621109  RH  069%=      5-min Rain = 0
KDO1 091210Z 33005KT M06/M11 A3033 RMK A01 T10631110  RH  069%=      5-min Rain = 0
KDO1 091211Z 33005KT M06/M11 A3033 RMK A01 T10631109  RH  070%=      5-min Rain = 0
KDO1 091212Z 33005KT M06/M11 A3033 RMK A01 T10621110  RH  069%=      5-min Rain = 0
KDO1 091213Z 33005KT M06/M11 A3033 RMK A01 T10601109  RH  068%=      5-min Rain = 0
KDO1 091214Z 33005KT M06/M11 A3033 RMK A01 T10591109  RH  068%=      5-min Rain = 0
KDO1 091215Z 33005KT M06/M11 A3033 RMK A01 T10581109  RH  067%=      5-min Rain = 0
KDO1 091216Z 33005KT M06/M11 A3034 RMK A01 T10571109  RH  067%=      5-min Rain = 0
KDO1 091217Z 32005KT M06/M11 A3034 RMK A01 T10561108  RH  067%=      5-min Rain = 0
KDO1 091218Z 32005KT M06/M11 A3034 RMK A01 T10561108  RH  067%=      5-min Rain = 0
KDO1 091219Z 32005KT M06/M11 A3034 RMK A01 T10551108  RH  067%=      5-min Rain = 0
KDO1 091220Z 31004KT M06/M11 A3034 RMK A01 T10561107  RH  067%=      5-min Rain = 0
KDO1 091221Z 31004KT M06/M11 A3034 RMK A01 T10561107  RH  067%=      5-min Rain = 0
KDO1 091222Z 31004KT M06/M11 A3034 RMK A01 T10561108  RH  067%=      5-min Rain = 0
KDO1 091223Z 32004KT M05/M11 A3034 RMK A01 T10541108  RH  066%=      5-min Rain = 0
KDO1 091224Z 32004KT M05/M11 A3034 RMK A01 T10531108  RH  066%=      5-min Rain = 0
KDO1 091225Z 32004KT M05/M11 A3034 RMK A01 T10531108  RH  065%=      5-min Rain = 0
KDO1 091226Z 31003KT M05/M11 A3034 RMK A01 T10521108  RH  064%=      5-min Rain = 0
KDO1 091227Z 31003KT M05/M11 A3034 RMK A01 T10511109  RH  064%=      5-min Rain = 0
KDO1 091228Z 31003KT M05/M11 A3034 RMK A01 T10501109  RH  063%=      5-min Rain = 0
KDO1 091229Z 31003KT M05/M11 A3034 RMK A01 T10491110  RH  063%=      5-min Rain = 0
KDO1 091230Z 32003KT M05/M11 A3034 RMK A01 T10491111  RH  062%=      5-min Rain = 0
KDO1 091231Z 32003KT M05/M11 A3034 RMK A01 T10491111  RH  062%=      5-min Rain = 0
KDO1 091232Z 32004KT M05/M11 A3034 RMK A01 T10481111  RH  061%=      5-min Rain = 0
KDO1 091233Z 32005KT M05/M11 A3034 RMK A01 T10481111  RH  061%=      5-min Rain = 0
KDO1 091234Z 32005KT M05/M11 A3034 RMK A01 T10481110  RH  062%=      5-min Rain = 0
KDO1 091235Z 32005KT M05/M11 A3034 RMK A01 T10481110  RH  062%=      5-min Rain = 0
KDO1 091236Z 33005KT M05/M11 A3034 RMK A01 T10491110  RH  062%=      5-min Rain = 0
KDO1 091237Z 33006KT M05/M11 A3034 RMK A01 T10491110  RH  062%=      5-min Rain = 0
KDO1 091238Z 33006KT M05/M11 A3034 RMK A01 T10481110  RH  062%=      5-min Rain = 0
KDO1 091239Z 32006KT M05/M11 A3034 RMK A01 T10461110  RH  061%=      5-min Rain = 0
KDO1 091240Z 32006KT M05/M11 A3034 RMK A01 T10461110  RH  061%=      5-min Rain = 0
KDO1 091241Z 32006KT M05/M11 A3034 RMK A01 T10461110  RH  061%=      5-min Rain = 0
KDO1 091242Z 32006KT M05/M11 A3034 RMK A01 T10451110  RH  061%=      5-min Rain = 0
KDO1 091243Z 32005KT M05/M11 A3034 RMK A01 T10451109  RH  061%=      5-min Rain = 0
KDO1 091244Z 32005KT M05/M11 A3034 RMK A01 T10461110  RH  061%=      5-min Rain = 0
KDO1 091245Z 32006KT M05/M11 A3034 RMK A01 T10461110  RH  061%=      5-min Rain = 0
KDO1 091246Z 32006KT M05/M11 A3034 RMK A01 T10461110  RH  061%=      5-min Rain = 0
KDO1 091247Z 32006KT M05/M11 A3034 RMK A01 T10461110  RH  061%=      5-min Rain = 0
KDO1 091248Z 32006KT M05/M11 A3034 RMK A01 T10461110  RH  061%=      5-min Rain = 0
KDO1 091249Z 32006KT M05/M11 A3034 RMK A01 T10451110  RH  060%=      5-min Rain = 0
KDO1 091250Z 32005KT M04/M11 A3034 RMK A01 T10441110  RH  060%=      5-min Rain = 0
KDO1 091251Z 33005KT M04/M11 A3034 RMK A01 T10441109  RH  060%=      5-min Rain = 0
KDO1 091252Z 33005KT M04/M11 A3034 RMK A01 T10441109  RH  061%=      5-min Rain = 0
KDO1 091253Z 33005KT M04/M11 A3034 RMK A01 T10441109  RH  061%=      5-min Rain = 0
KDO1 091254Z 33005KT M04/M11 A3034 RMK A01 T10441109  RH  060%=      5-min Rain = 0
KDO1 091255Z 33005KT M04/M11 A3034 RMK A01 T10441109  RH  061%=      5-min Rain = 0
KDO1 091256Z 33005KT M04/M11 A3034 RMK A01 T10441109  RH  061%=      5-min Rain = 0
KDO1 091257Z 32005KT M05/M11 A3034 RMK A01 T10451110  RH  060%=      5-min Rain = 0
KDO1 091258Z 33004KT M05/M11 A3034 RMK A01 T10451110  RH  060%=      5-min Rain = 0
KDO1 091259Z 33004KT M05/M11 A3035 RMK A01 T10451110  RH  060%=      5-min Rain = 0
KDO1 091300Z 32004KT M04/M11 A3035 RMK A01 T10441109  RH  060%=      5-min Rain = 0
KDO1 091301Z 33004KT M05/M11 A3035 RMK A01 T10451110  RH  061%=      5-min Rain = 0
KDO1 091302Z 32004KT M05/M11 A3035 RMK A01 T10451110  RH  061%=      5-min Rain = 0
KDO1 091303Z 32004KT M04/M11 A3035 RMK A01 T10441109  RH  061%=      5-min Rain = 0
KDO1 091304Z 32004KT M04/M11 A3035 RMK A01 T10441109  RH  060%=      5-min Rain = 0
KDO1 091305Z 31004KT M05/M11 A3035 RMK A01 T10451110  RH  060%=      5-min Rain = 0
KDO1 091306Z 31002KT M04/M11 A3035 RMK A01 T10441110  RH  060%=      5-min Rain = 0
KDO1 091307Z 31002KT M04/M11 A3035 RMK A01 T10441109  RH  061%=      5-min Rain = 0
KDO1 091308Z 31002KT M04/M11 A3035 RMK A01 T10441108  RH  061%=      5-min Rain = 0
KDO1 091309Z 30001KT M04/M11 A3035 RMK A01 T10441109  RH  061%=      5-min Rain = 0
KDO1 091310Z 31002KT M04/M11 A3035 RMK A01 T10441109  RH  060%=      5-min Rain = 0
KDO1 091311Z 31002KT M04/M11 A3035 RMK A01 T10441110  RH  060%=      5-min Rain = 0
KDO1 091312Z 31003KT M04/M11 A3035 RMK A01 T10441111  RH  060%=      5-min Rain = 0
KDO1 091313Z 30003KT M04/M11 A3035 RMK A01 T10441111  RH  059%=      5-min Rain = 0
KDO1 091314Z 30003KT M04/M11 A3035 RMK A01 T10431111  RH  059%=      5-min Rain = 0
KDO1 091315Z 30003KT M04/M11 A3035 RMK A01 T10431110  RH  059%=      5-min Rain = 0
KDO1 091316Z 30002KT M04/M11 A3035 RMK A01 T10441111  RH  060%=      5-min Rain = 0
KDO1 091317Z 31002KT M04/M11 A3035 RMK A01 T10441111  RH  060%=      5-min Rain = 0
KDO1 091318Z 30002KT M04/M11 A3035 RMK A01 T10441111  RH  060%=      5-min Rain = 0
KDO1 091319Z 31003KT M05/M11 A3035 RMK A01 T10451110  RH  060%=      5-min Rain = 0
KDO1 091320Z 30003KT M05/M11 A3035 RMK A01 T10451110  RH  060%=      5-min Rain = 0
KDO1 091321Z 30003KT M05/M11 A3035 RMK A01 T10461110  RH  061%=      5-min Rain = 0
KDO1 091322Z 30003KT M05/M11 A3036 RMK A01 T10461109  RH  061%=      5-min Rain = 0
KDO1 091323Z 30004KT M05/M11 A3036 RMK A01 T10471109  RH  062%=      5-min Rain = 0
KDO1 091324Z 30003KT M05/M11 A3036 RMK A01 T10471109  RH  062%=      5-min Rain = 0
KDO1 091325Z 30004KT M05/M11 A3036 RMK A01 T10471110  RH  061%=      5-min Rain = 0
KDO1 091326Z 30004KT M05/M11 A3036 RMK A01 T10461110  RH  061%=      5-min Rain = 0
KDO1 091327Z 31003KT M05/M11 A3036 RMK A01 T10461110  RH  061%=      5-min Rain = 0
KDO1 091328Z 29001KT M05/M11 A3036 RMK A01 T10461111  RH  060%=      5-min Rain = 0
KDO1 091329Z 30001KT M05/M11 A3036 RMK A01 T10461110  RH  061%=      5-min Rain = 0
KDO1 091330Z 24000KT M05/M11 A3036 RMK A01 T10521112  RH  063%=      5-min Rain = 0
KDO1 091331Z 23001KT M06/M11 A3036 RMK A01 T10591114  RH  065%=      5-min Rain = 0
KDO1 091332Z 25001KT M06/M11 A3036 RMK A01 T10641113  RH  068%=      5-min Rain = 0
KDO1 091333Z 22001KT M07/M11 A3036 RMK A01 T10661113  RH  070%=      5-min Rain = 0
KDO1 091334Z 20003KT M07/M11 A3036 RMK A01 T10681112  RH  071%=      5-min Rain = 0
KDO1 091335Z 21002KT M07/M11 A3036 RMK A01 T10681110  RH  072%=      5-min Rain = 0
KDO1 091336Z 23003KT M07/M11 A3036 RMK A01 T10681108  RH  073%=      5-min Rain = 0
KDO1 091337Z 23003KT M07/M11 A3036 RMK A01 T10671108  RH  073%=      5-min Rain = 0
KDO1 091338Z 24003KT M07/M11 A3036 RMK A01 T10661107  RH  073%=      5-min Rain = 0
KDO1 091339Z 25002KT M07/M11 A3036 RMK A01 T10661108  RH  072%=      5-min Rain = 0
KDO1 091340Z 25003KT M07/M11 A3036 RMK A01 T10661108  RH  072%=      5-min Rain = 0
KDO1 091341Z 25002KT M07/M11 A3036 RMK A01 T10661108  RH  072%=      5-min Rain = 0
KDO1 091342Z 25002KT M07/M11 A3036 RMK A01 T10661107  RH  073%=      5-min Rain = 0
KDO1 091343Z 25002KT M07/M11 A3036 RMK A01 T10661108  RH  073%=      5-min Rain = 0
KDO1 091344Z 25002KT M07/M11 A3036 RMK A01 T10671107  RH  073%=      5-min Rain = 0
KDO1 091345Z 26002KT M07/M11 A3036 RMK A01 T10661107  RH  073%=      5-min Rain = 0
KDO1 091346Z 25002KT M07/M11 A3036 RMK A01 T10661107  RH  073%=      5-min Rain = 0
KDO1 091347Z 25003KT M07/M11 A3036 RMK A01 T10661108  RH  072%=      5-min Rain = 0
KDO1 091348Z 25003KT M07/M11 A3037 RMK A01 T10661108  RH  072%=      5-min Rain = 0
KDO1 091349Z 25003KT M07/M11 A3037 RMK A01 T10661108  RH  072%=      5-min Rain = 0
KDO1 091350Z 25003KT M07/M11 A3037 RMK A01 T10661108  RH  072%=      5-min Rain = 0
KDO1 091351Z 25003KT M07/M11 A3037 RMK A01 T10661108  RH  072%=      5-min Rain = 0
KDO1 091352Z 25003KT M07/M11 A3037 RMK A01 T10661108  RH  072%=      5-min Rain = 0
KDO1 091353Z 25003KT M07/M11 A3037 RMK A01 T10661107  RH  072%=      5-min Rain = 0
KDO1 091354Z 26003KT M07/M11 A3037 RMK A01 T10651107  RH  072%=      5-min Rain = 0
KDO1 091355Z 26003KT M07/M11 A3037 RMK A01 T10651106  RH  072%=      5-min Rain = 0
KDO1 091356Z 26003KT M06/M11 A3037 RMK A01 T10641106  RH  072%=      5-min Rain = 0
KDO1 091357Z 26003KT M06/M11 A3037 RMK A01 T10631106  RH  072%=      5-min Rain = 0
KDO1 091358Z 26003KT M06/M11 A3037 RMK A01 T10631105  RH  072%=      5-min Rain = 0
KDO1 091359Z 26003KT M06/M11 A3037 RMK A01 T10631105  RH  072%=      5-min Rain = 0
KDO1 091400Z 27003KT M06/M11 A3037 RMK A01 T10631105  RH  072%=      5-min Rain = 0
KDO1 091401Z 26003KT M06/M10 A3037 RMK A01 T10621104  RH  072%=      5-min Rain = 0
KDO1 091402Z 27003KT M06/M10 A3037 RMK A01 T10621104  RH  072%=      5-min Rain = 0
KDO1 091403Z 27003KT M06/M10 A3037 RMK A01 T10611104  RH  072%=      5-min Rain = 0
KDO1 091404Z 28004KT M06/M10 A3038 RMK A01 T10601103  RH  072%=      5-min Rain = 0
KDO1 091405Z 28004KT M06/M10 A3037 RMK A01 T10591102  RH  072%=      5-min Rain = 0
KDO1 091406Z 28004KT M06/M10 A3037 RMK A01 T10581101  RH  071%=      5-min Rain = 0
KDO1 091407Z 28004KT M06/M10 A3038 RMK A01 T10571101  RH  071%=      5-min Rain = 0
KDO1 091408Z 28004KT M06/M10 A3038 RMK A01 T10561101  RH  071%=      5-min Rain = 0
KDO1 091409Z 28004KT M06/M10 A3038 RMK A01 T10551101  RH  070%=      5-min Rain = 0
KDO1 091410Z 28005KT M05/M10 A3038 RMK A01 T10541100  RH  070%=      5-min Rain = 0
KDO1 091411Z 28004KT M05/M10 A3038 RMK A01 T10531099  RH  070%=      5-min Rain = 0
KDO1 091412Z 28004KT M05/M10 A3038 RMK A01 T10521099  RH  069%=      5-min Rain = 0
KDO1 091413Z 28003KT M05/M10 A3038 RMK A01 T10511099  RH  069%=      5-min Rain = 0
KDO1 091414Z 28003KT M05/M10 A3038 RMK A01 T10501098  RH  069%=      5-min Rain = 0
KDO1 091415Z 28002KT M05/M10 A3038 RMK A01 T10501096  RH  070%=      5-min Rain = 0
KDO1 091416Z 28002KT M05/M10 A3038 RMK A01 T10501096  RH  071%=      5-min Rain = 0
KDO1 091417Z 28003KT M05/M10 A3038 RMK A01 T10511095  RH  071%=      5-min Rain = 0
KDO1 091418Z 29003KT M05/M10 A3038 RMK A01 T10511096  RH  071%=      5-min Rain = 0
KDO1 091419Z 28003KT M05/M10 A3038 RMK A01 T10511096  RH  070%=      5-min Rain = 0
KDO1 091420Z 28003KT M05/M10 A3038 RMK A01 T10501096  RH  070%=      5-min Rain = 0
KDO1 091421Z 29004KT M05/M10 A3038 RMK A01 T10491096  RH  070%=      5-min Rain = 0
KDO1 091422Z 28003KT M05/M10 A3038 RMK A01 T10481095  RH  069%=      5-min Rain = 0
KDO1 091423Z 29003KT M05/M10 A3038 RMK A01 T10461095  RH  068%=      5-min Rain = 0
KDO1 091424Z 29003KT M04/M10 A3038 RMK A01 T10441095  RH  067%=      5-min Rain = 0
KDO1 091425Z 30003KT M04/M10 A3038 RMK A01 T10421095  RH  067%=      5-min Rain = 0
KDO1 091426Z 30003KT M04/M10 A3038 RMK A01 T10401095  RH  066%=      5-min Rain = 0
KDO1 091427Z 30002KT M04/M10 A3038 RMK A01 T10391096  RH  065%=      5-min Rain = 0
KDO1 091428Z 29002KT M04/M10 A3038 RMK A01 T10371095  RH  064%=      5-min Rain = 0
KDO1 091429Z 30003KT M04/M10 A3038 RMK A01 T10361096  RH  063%=      5-min Rain = 0
KDO1 091430Z 29003KT M04/M10 A3038 RMK A01 T10351097  RH  062%=      5-min Rain = 0
KDO1 091431Z 29004KT M03/M10 A3038 RMK A01 T10331098  RH  061%=      5-min Rain = 0
KDO1 091432Z 29004KT M03/M10 A3038 RMK A01 T10311099  RH  060%=      5-min Rain = 0
KDO1 091433Z 29004KT M03/M10 A3038 RMK A01 T10301100  RH  059%=      5-min Rain = 0
KDO1 091434Z 29004KT M03/M10 A3038 RMK A01 T10291101  RH  058%=      5-min Rain = 0
KDO1 091435Z 29004KT M03/M10 A3038 RMK A01 T10281101  RH  057%=      5-min Rain = 0
KDO1 091436Z 29005KT M03/M10 A3038 RMK A01 T10271101  RH  057%=      5-min Rain = 0
KDO1 091437Z 29004KT M03/M10 A3038 RMK A01 T10261101  RH  056%=      5-min Rain = 0
KDO1 091438Z 29004KT M03/M10 A3038 RMK A01 T10251101  RH  056%=      5-min Rain = 0
KDO1 091439Z 29004KT M03/M10 A3038 RMK A01 T10251101  RH  056%=      5-min Rain = 0
KDO1 091440Z 29003KT M02/M10 A3038 RMK A01 T10241101  RH  056%=      5-min Rain = 0
KDO1 091441Z 29004KT M02/M10 A3038 RMK A01 T10241100  RH  056%=      5-min Rain = 0
KDO1 091442Z 29004KT M02/M10 A3038 RMK A01 T10241101  RH  055%=      5-min Rain = 0
KDO1 091443Z 29003KT M02/M10 A3038 RMK A01 T10241102  RH  055%=      5-min Rain = 0
KDO1 091444Z 29003KT M02/M10 A3038 RMK A01 T10231102  RH  055%=      5-min Rain = 0
KDO1 091445Z 29003KT M02/M10 A3038 RMK A01 T10231102  RH  055%=      5-min Rain = 0
KDO1 091446Z 28002KT M02/M10 A3038 RMK A01 T10231101  RH  055%=      5-min Rain = 0
KDO1 091447Z 29003KT M02/M10 A3038 RMK A01 T10231100  RH  055%=      5-min Rain = 0
KDO1 091448Z 28003KT M02/M10 A3038 RMK A01 T10221101  RH  055%=      5-min Rain = 0
KDO1 091449Z 28003KT M02/M10 A3038 RMK A01 T10211100  RH  055%=      5-min Rain = 0
KDO1 091450Z 28003KT M02/M10 A3038 RMK A01 T10201099  RH  055%=      5-min Rain = 0
KDO1 091451Z 28003KT M02/M10 A3038 RMK A01 T10191099  RH  055%=      5-min Rain = 0
KDO1 091452Z 28003KT M02/M10 A3038 RMK A01 T10191100  RH  054%=      5-min Rain = 0
KDO1 091453Z 28003KT M02/M10 A3038 RMK A01 T10191101  RH  053%=      5-min Rain = 0
KDO1 091454Z 28003KT M02/M10 A3038 RMK A01 T10181102  RH  053%=      5-min Rain = 0
KDO1 091455Z 27002KT M02/M10 A3038 RMK A01 T10181101  RH  053%=      5-min Rain = 0
KDO1 091456Z 28003KT M02/M10 A3038 RMK A01 T10171098  RH  054%=      5-min Rain = 0
KDO1 091457Z 28003KT M02/M10 A3038 RMK A01 T10151098  RH  053%=      5-min Rain = 0
KDO1 091458Z 29003KT M01/M10 A3038 RMK A01 T10141095  RH  054%=      5-min Rain = 0
KDO1 091459Z 29004KT M01/M10 A3038 RMK A01 T10131095  RH  053%=      5-min Rain = 0
KDO1 091500Z 30004KT M01/M10 A3038 RMK A01 T10111097  RH  052%=      5-min Rain = 0
KDO1 091501Z 29003KT M01/M10 A3038 RMK A01 T10101097  RH  052%=      5-min Rain = 0
KDO1 091502Z 28003KT M01/M10 A3038 RMK A01 T10091095  RH  052%=      5-min Rain = 0
KDO1 091503Z 29004KT M01/M10 A3038 RMK A01 T10091096  RH  052%=      5-min Rain = 0
KDO1 091504Z 28004KT M01/M10 A3038 RMK A01 T10071095  RH  051%=      5-min Rain = 0
KDO1 091505Z 29004KT M01/M10 A3038 RMK A01 T10071096  RH  051%=      5-min Rain = 0
KDO1 091506Z 28003KT M01/M10 A3038 RMK A01 T10051097  RH  050%=      5-min Rain = 0
KDO1 091507Z 28004KT M00/M10 A3038 RMK A01 T10041096  RH  050%=      5-min Rain = 0
KDO1 091508Z 29004KT M00/M10 A3039 RMK A01 T10021098  RH  049%=      5-min Rain = 0
KDO1 091509Z 28003KT M00/M10 A3039 RMK A01 T10021098  RH  048%=      5-min Rain = 0
KDO1 091510Z 28003KT M00/M10 A3039 RMK A01 T10011097  RH  048%=      5-min Rain = 0
KDO1 091511Z 28003KT M00/M10 A3039 RMK A01 T10011097  RH  048%=      5-min Rain = 0
KDO1 091512Z 27003KT 00/10 A3039 RMK A01 T00000-95  RH  049%=      5-min Rain = 0
KDO1 091513Z 28004KT 00/M10 A3039 RMK A01 T00011095  RH  048%=      5-min Rain = 0
KDO1 091514Z 28004KT 00/M10 A3039 RMK A01 T00011098  RH  048%=      5-min Rain = 0
KDO1 091515Z 28004KT 00/M10 A3039 RMK A01 T00011098  RH  047%=      5-min Rain = 0
KDO1 091516Z 29004KT 00/M10 A3039 RMK A01 T00011097  RH  048%=      5-min Rain = 0
KDO1 091517Z 29004KT 00/M10 A3039 RMK A01 T00011098  RH  047%=      5-min Rain = 0
KDO1 091518Z 29005KT 00/M10 A3039 RMK A01 T00011099  RH  047%=      5-min Rain = 0
KDO1 091519Z 29005KT 00/M10 A3039 RMK A01 T00011099  RH  047%=      5-min Rain = 0
KDO1 091520Z 28004KT 00/M10 A3039 RMK A01 T00011099  RH  047%=      5-min Rain = 0
KDO1 091521Z 28005KT 00/M10 A3039 RMK A01 T00011099  RH  047%=      5-min Rain = 0
KDO1 091522Z 29005KT 00/M10 A3039 RMK A01 T00011099  RH  047%=      5-min Rain = 0
KDO1 091523Z 29005KT 00/M10 A3039 RMK A01 T00011098  RH  047%=      5-min Rain = 0
KDO1 091524Z 28005KT 00/M10 A3039 RMK A01 T00021096  RH  048%=      5-min Rain = 0
KDO1 091525Z 28005KT 00/M10 A3039 RMK A01 T00031095  RH  047%=      5-min Rain = 0
KDO1 091526Z 29004KT 00/M09 A3039 RMK A01 T00041094  RH  047%=      5-min Rain = 0
KDO1 091527Z 29004KT 01/M09 A3039 RMK A01 T00061094  RH  047%=      5-min Rain = 0
KDO1 091528Z 30004KT 01/M09 A3039 RMK A01 T00071094  RH  047%=      5-min Rain = 0
KDO1 091529Z 29003KT 01/M09 A3039 RMK A01 T00081094  RH  046%=      5-min Rain = 0
KDO1 091530Z 29003KT 01/M09 A3039 RMK A01 T00101092  RH  047%=      5-min Rain = 0
KDO1 091531Z 30005KT 01/M09 A3039 RMK A01 T00121093  RH  046%=      5-min Rain = 0
KDO1 091532Z 30005KT 01/M09 A3039 RMK A01 T00131093  RH  045%=      5-min Rain = 0
KDO1 091533Z 29004KT 01/M10 A3039 RMK A01 T00141096  RH  044%=      5-min Rain = 0
KDO1 091534Z 30004KT 02/M10 A3039 RMK A01 T00151095  RH  044%=      5-min Rain = 0
KDO1 091535Z 27004KT 02/M09 A3039 RMK A01 T00171091  RH  045%=      5-min Rain = 0
KDO1 091536Z 28004KT 02/M09 A3039 RMK A01 T00171091  RH  044%=      5-min Rain = 0
KDO1 091537Z 28004KT 02/M09 A3039 RMK A01 T00171092  RH  044%=      5-min Rain = 0
KDO1 091538Z 28003KT 02/M09 A3039 RMK A01 T00181091  RH  044%=      5-min Rain = 0
KDO1 091539Z 29003KT 02/M09 A3039 RMK A01 T00181093  RH  043%=      5-min Rain = 0
KDO1 091540Z 28002KT 02/M09 A3039 RMK A01 T00191093  RH  043%=      5-min Rain = 0
KDO1 091541Z 26003KT 02/M09 A3039 RMK A01 T00201090  RH  044%=      5-min Rain = 0
KDO1 091542Z 29003KT 02/M09 A3039 RMK A01 T00221089  RH  044%=      5-min Rain = 0
KDO1 091543Z 29003KT 02/M09 A3039 RMK A01 T00241088  RH  044%=      5-min Rain = 0
KDO1 091544Z 31003KT 03/M09 A3039 RMK A01 T00261091  RH  042%=      5-min Rain = 0
KDO1 091545Z 31003KT 03/M10 A3039 RMK A01 T00271095  RH  040%=      5-min Rain = 0
KDO1 091546Z 31004KT 03/M10 A3039 RMK A01 T00291095  RH  040%=      5-min Rain = 0
KDO1 091547Z 32005KT 03/M10 A304 RMK A01 T00311095  RH  039%=      5-min Rain = 0
KDO1 091548Z 32006KT 03/M10 A304 RMK A01 T00331103  RH  036%=      5-min Rain = 0
KDO1 091549Z 31007KT 03/M11 A304 RMK A01 T00341107  RH  035%=      5-min Rain = 0
KDO1 091550Z 31006KT 03/M11 A304 RMK A01 T00341109  RH  034%=      5-min Rain = 0
KDO1 091551Z 32005KT 03/M11 A304 RMK A01 T00341110  RH  034%=      5-min Rain = 0
KDO1 091552Z 32005KT 03/M11 A3039 RMK A01 T00341110  RH  034%=      5-min Rain = 0
KDO1 091553Z 32004KT 04/M11 A3039 RMK A01 T00361107  RH  034%=      5-min Rain = 0
KDO1 091554Z 33004KT 04/M10 A304 RMK A01 T00381104  RH  035%=      5-min Rain = 0
KDO1 091555Z 33005KT 04/M11 A304 RMK A01 T00391105  RH  034%=      5-min Rain = 0
KDO1 091556Z 35006KT 04/M11 A304 RMK A01 T00401108  RH  033%=      5-min Rain = 0
KDO1 091557Z 34007KT 04/M11 A304 RMK A01 T00401107  RH  033%=      5-min Rain = 0
KDO1 091558Z 34007KT 04/M11 A304 RMK A01 T00421107  RH  033%=      5-min Rain = 0
KDO1 091559Z 35006KT 04/M11 A304 RMK A01 T00421107  RH  033%=      5-min Rain = 0
KDO1 091600Z 36005KT 04/M11 A304 RMK A01 T00421108  RH  033%=      5-min Rain = 0
KDO1 091601Z 34006KT 04/M11 A304 RMK A01 T00431106  RH  033%=      5-min Rain = 0
KDO1 091602Z 33007KT 04/M10 A304 RMK A01 T00441104  RH  033%=      5-min Rain = 0
KDO1 091603Z 33007KT 05/M10 A304 RMK A01 T00451103  RH  033%=      5-min Rain = 0
KDO1 091604Z 33007KT 05/M10 A304 RMK A01 T00461102  RH  033%=      5-min Rain = 0
KDO1 091605Z 32007KT 05/M10 A304 RMK A01 T00471101  RH  033%=      5-min Rain = 0
KDO1 091606Z 34006KT 05/M10 A304 RMK A01 T00481101  RH  033%=      5-min Rain = 0
KDO1 091607Z 36007KT 05/M10 A304 RMK A01 T00481102  RH  033%=      5-min Rain = 0
KDO1 091608Z 34006KT 05/M10 A304 RMK A01 T00471104  RH  033%=      5-min Rain = 0
KDO1 091609Z 35005KT 05/M10 A304 RMK A01 T00471102  RH  033%=      5-min Rain = 0
KDO1 091610Z 35006KT 05/M10 A304 RMK A01 T00481100  RH  033%=      5-min Rain = 0
KDO1 091611Z 36006KT 05/M10 A304 RMK A01 T00481102  RH  033%=      5-min Rain = 0
KDO1 091612Z 35006KT 05/M10 A304 RMK A01 T00481099  RH  034%=      5-min Rain = 0
KDO1 091613Z 33005KT 05/M10 A304 RMK A01 T00491100  RH  033%=      5-min Rain = 0
KDO1 091614Z 33005KT 05/M10 A304 RMK A01 T00491098  RH  034%=      5-min Rain = 0
KDO1 091615Z 32005KT 05/M10 A304 RMK A01 T00501099  RH  033%=      5-min Rain = 0
KDO1 091616Z 34003KT 05/M10 A304 RMK A01 T00501096  RH  034%=      5-min Rain = 0
KDO1 091617Z 35005KT 05/M10 A304 RMK A01 T00511095  RH  034%=      5-min Rain = 0
KDO1 091618Z 35006KT 05/M10 A304 RMK A01 T00521096  RH  034%=      5-min Rain = 0
KDO1 091619Z 35005KT 05/M10 A304 RMK A01 T00521096  RH  033%=      5-min Rain = 0
KDO1 091620Z 34004KT 05/M10 A304 RMK A01 T00511096  RH  034%=      5-min Rain = 0
KDO1 091621Z 33008KT 05/M09 A304 RMK A01 T00521092  RH  035%=      5-min Rain = 0
KDO1 091622Z 32007KT 05/M09 A304 RMK A01 T00521091  RH  035%=      5-min Rain = 0
KDO1 091623Z 33006KT 05/M09 A304 RMK A01 T00531089  RH  035%=      5-min Rain = 0
KDO1 091624Z 34009KT 05/M09 A304 RMK A01 T00531089  RH  035%=      5-min Rain = 0
KDO1 091625Z 34007KT 05/M09 A304 RMK A01 T00521090  RH  035%=      5-min Rain = 0
KDO1 091626Z 33005KT 05/M09 A304 RMK A01 T00521088  RH  036%=      5-min Rain = 0
KDO1 091627Z 35007KT 05/M09 A304 RMK A01 T00531086  RH  036%=      5-min Rain = 0
KDO1 091628Z 35008KT 05/M09 A304 RMK A01 T00531086  RH  036%=      5-min Rain = 0
KDO1 091629Z 36007KT 05/M09 A304 RMK A01 T00531088  RH  036%=      5-min Rain = 0
KDO1 091630Z 34005KT 05/M09 A304 RMK A01 T00521087  RH  036%=      5-min Rain = 0
KDO1 091631Z 35006KT 05/M08 A304 RMK A01 T00531084  RH  037%=      5-min Rain = 0
KDO1 091632Z 35006KT 05/M08 A304 RMK A01 T00531084  RH  036%=      5-min Rain = 0
KDO1 091633Z 35006KT 05/M08 A304 RMK A01 T00531084  RH  036%=      5-min Rain = 0
KDO1 091634Z 01006KT 05/M08 A304 RMK A01 T00541084  RH  036%=      5-min Rain = 0
KDO1 091635Z 02005KT 05/M08 A304 RMK A01 T00541084  RH  036%=      5-min Rain = 0
KDO1 091636Z 01007KT 06/M08 A304 RMK A01 T00551082  RH  037%=      5-min Rain = 0
KDO1 091637Z 00006KT 06/M08 A304 RMK A01 T00551082  RH  036%=      5-min Rain = 0
KDO1 091638Z 01005KT 05/M08 A304 RMK A01 T00541082  RH  037%=      5-min Rain = 0
KDO1 091639Z 02005KT 05/M08 A304 RMK A01 T00541083  RH  037%=      5-min Rain = 0
KDO1 091640Z 00006KT 06/M08 A304 RMK A01 T00551080  RH  037%=      5-min Rain = 0
KDO1 091641Z 01007KT 06/M08 A304 RMK A01 T00581079  RH  037%=      5-min Rain = 0
KDO1 091642Z 01003KT 06/M08 A304 RMK A01 T00571082  RH  036%=      5-min Rain = 0
KDO1 091643Z 03005KT 06/M08 A304 RMK A01 T00561083  RH  036%=      5-min Rain = 0
KDO1 091644Z 01004KT 06/M08 A304 RMK A01 T00561083  RH  036%=      5-min Rain = 0
KDO1 091645Z 00008KT 06/M08 A304 RMK A01 T00581080  RH  036%=      5-min Rain = 0
KDO1 091646Z 36008KT 06/M08 A304 RMK A01 T00591081  RH  036%=      5-min Rain = 0
KDO1 091647Z 01006KT 06/M08 A304 RMK A01 T00571083  RH  036%=      5-min Rain = 0
KDO1 091648Z 36007KT 06/M08 A304 RMK A01 T00561083  RH  036%=      5-min Rain = 0
KDO1 091649Z 34004KT 06/M08 A304 RMK A01 T00561082  RH  036%=      5-min Rain = 0
KDO1 091650Z 36004KT 06/M08 A304 RMK A01 T00561081  RH  037%=      5-min Rain = 0
KDO1 091651Z 00006KT 06/M08 A304 RMK A01 T00591077  RH  037%=      5-min Rain = 0
KDO1 091652Z 34008KT 06/M08 A304 RMK A01 T00601079  RH  036%=      5-min Rain = 0
KDO1 091653Z 34005KT 06/M08 A304 RMK A01 T00601080  RH  036%=      5-min Rain = 0
KDO1 091654Z 33004KT 06/M08 A304 RMK A01 T00591080  RH  036%=      5-min Rain = 0
KDO1 091655Z 34006KT 06/M08 A304 RMK A01 T00601076  RH  037%=      5-min Rain = 0
KDO1 091656Z 34008KT 06/M08 A304 RMK A01 T00621076  RH  037%=      5-min Rain = 0
KDO1 091657Z 35005KT 06/M08 A304 RMK A01 T00631077  RH  036%=      5-min Rain = 0
KDO1 091658Z 01006KT 06/M08 A304 RMK A01 T00631079  RH  035%=      5-min Rain = 0
KDO1 091659Z 01004KT 06/M08 A304 RMK A01 T00621079  RH  036%=      5-min Rain = 0
KDO1 091700Z 36004KT 06/M08 A304 RMK A01 T00621080  RH  035%=      5-min Rain = 0
KDO1 091701Z 36005KT 06/M08 A304 RMK A01 T00621078  RH  036%=      5-min Rain = 0
KDO1 091702Z 02007KT 06/M08 A304 RMK A01 T00641075  RH  036%=      5-min Rain = 0
KDO1 091703Z 03005KT 07/M08 A304 RMK A01 T00661077  RH  035%=      5-min Rain = 0
KDO1 091704Z 02006KT 07/M08 A304 RMK A01 T00671077  RH  035%=      5-min Rain = 0
KDO1 091705Z 00004KT 07/M08 A304 RMK A01 T00671078  RH  035%=      5-min Rain = 0
KDO1 091706Z 03003KT 07/M08 A304 RMK A01 T00671075  RH  036%=      5-min Rain = 0
KDO1 091707Z 04004KT 07/M08 A304 RMK A01 T00661078  RH  035%=      5-min Rain = 0
KDO1 091708Z 04007KT 07/M08 A304 RMK A01 T00651078  RH  035%=      5-min Rain = 0
KDO1 091709Z 04006KT 07/M08 A304 RMK A01 T00661079  RH  035%=      5-min Rain = 0
KDO1 091710Z 02004KT 07/M08 A304 RMK A01 T00671078  RH  035%=      5-min Rain = 0
KDO1 091711Z 36003KT 07/M08 A304 RMK A01 T00681076  RH  035%=      5-min Rain = 0
KDO1 091712Z 00004KT 07/M08 A304 RMK A01 T00671078  RH  035%=      5-min Rain = 0
KDO1 091713Z 35004KT 07/M08 A304 RMK A01 T00661077  RH  035%=      5-min Rain = 0
KDO1 091714Z 01005KT 07/M08 A304 RMK A01 T00661077  RH  035%=      5-min Rain = 0
KDO1 091715Z 00003KT 07/M08 A304 RMK A01 T00671078  RH  035%=      5-min Rain = 0
KDO1 091716Z 00003KT 07/M08 A304 RMK A01 T00671078  RH  035%=      5-min Rain = 0
KDO1 091717Z 34001KT 07/M08 A304 RMK A01 T00681077  RH  035%=      5-min Rain = 0
KDO1 091718Z 35003KT 07/M07 A304 RMK A01 T00681074  RH  035%=      5-min Rain = 0
KDO1 091719Z 35004KT 07/M08 A304 RMK A01 T00701075  RH  035%=      5-min Rain = 0
KDO1 091720Z 34005KT 07/M08 A304 RMK A01 T00701077  RH  034%=      5-min Rain = 0
KDO1 091721Z 34005KT 07/M08 A304 RMK A01 T00691080  RH  034%=      5-min Rain = 0
KDO1 091722Z 35005KT 07/M08 A304 RMK A01 T00681079  RH  034%=      5-min Rain = 0
KDO1 091723Z 01004KT 07/M08 A304 RMK A01 T00681079  RH  034%=      5-min Rain = 0
KDO1 091724Z 02002KT 07/M08 A304 RMK A01 T00671080  RH  034%=      5-min Rain = 0
KDO1 091725Z 01003KT 07/M08 A304 RMK A01 T00681080  RH  034%=      5-min Rain = 0
KDO1 091726Z 34003KT 07/M08 A304 RMK A01 T00681079  RH  034%=      5-min Rain = 0
KDO1 091727Z 33002KT 07/M08 A304 RMK A01 T00681079  RH  034%=      5-min Rain = 0
KDO1 091728Z 35001KT 07/M08 A304 RMK A01 T00711077  RH  034%=      5-min Rain = 0
KDO1 091729Z 08002KT 07/M08 A304 RMK A01 T00731076  RH  034%=      5-min Rain = 0
KDO1 091730Z 06005KT 08/M08 A304 RMK A01 T00751076  RH  033%=      5-min Rain = 0
KDO1 091731Z 01006KT 08/M08 A304 RMK A01 T00771077  RH  033%=      5-min Rain = 0
KDO1 091732Z 00004KT 08/M08 A3039 RMK A01 T00761082  RH  032%=      5-min Rain = 0
KDO1 091733Z 36004KT 07/M09 A3039 RMK A01 T00731085  RH  031%=      5-min Rain = 0
KDO1 091734Z 01003KT 07/M08 A3039 RMK A01 T00721084  RH  032%=      5-min Rain = 0
KDO1 091735Z 34004KT 07/M08 A3039 RMK A01 T00731079  RH  033%=      5-min Rain = 0
KDO1 091736Z 00004KT 07/M08 A3039 RMK A01 T00741078  RH  033%=      5-min Rain = 0
KDO1 091737Z 01003KT 08/M08 A3039 RMK A01 T00761075  RH  033%=      5-min Rain = 0
KDO1 091738Z 02002KT 08/M07 A3039 RMK A01 T00791073  RH  033%=      5-min Rain = 0
KDO1 091739Z 02003KT 08/M08 A3039 RMK A01 T00801076  RH  032%=      5-min Rain = 0
KDO1 091740Z 02005KT 08/M08 A3039 RMK A01 T00791076  RH  032%=      5-min Rain = 0
KDO1 091741Z 02005KT 08/M08 A3039 RMK A01 T00791079  RH  032%=      5-min Rain = 0
KDO1 091742Z 03004KT 08/M08 A3039 RMK A01 T00791080  RH  032%=      5-min Rain = 0
KDO1 091743Z 00004KT 08/M08 A3039 RMK A01 T00781083  RH  031%=      5-min Rain = 0
KDO1 091744Z 36004KT 08/M09 A3039 RMK A01 T00761085  RH  031%=      5-min Rain = 0
KDO1 091745Z 01006KT 08/M08 A3039 RMK A01 T00751084  RH  031%=      5-min Rain = 0
KDO1 091746Z 01008KT 08/M08 A3039 RMK A01 T00751083  RH  032%=      5-min Rain = 0
KDO1 091747Z 01007KT 08/M08 A3039 RMK A01 T00751084  RH  031%=      5-min Rain = 0
KDO1 091748Z 36006KT 08/M08 A3039 RMK A01 T00751084  RH  031%=      5-min Rain = 0
KDO1 091749Z 35005KT 08/M09 A3039 RMK A01 T00751085  RH  031%=      5-min Rain = 0
KDO1 091750Z 35004KT 08/M09 A3039 RMK A01 T00751087  RH  031%=      5-min Rain = 0
KDO1 091751Z 01007KT 08/M09 A3039 RMK A01 T00751085  RH  031%=      5-min Rain = 0
KDO1 091752Z 03003KT 08/M09 A3039 RMK A01 T00751086  RH  031%=      5-min Rain = 0
KDO1 091753Z 04006KT 08/M09 A3039 RMK A01 T00771085  RH  031%=      5-min Rain = 0
KDO1 091754Z 04005KT 08/M08 A3039 RMK A01 T00791082  RH  031%=      5-min Rain = 0
KDO1 091755Z 05004KT 08/M08 A3038 RMK A01 T00791084  RH  031%=      5-min Rain = 0
KDO1 091756Z 04005KT 08/M08 A3038 RMK A01 T00771084  RH  031%=      5-min Rain = 0
KDO1 091757Z 01006KT 08/M08 A3038 RMK A01 T00781082  RH  031%=      5-min Rain = 0
KDO1 091758Z 36006KT 08/M08 A3038 RMK A01 T00771083  RH  031%=      5-min Rain = 0
KDO1 091759Z 36006KT 08/M08 A3038 RMK A01 T00771081  RH  032%=      5-min Rain = 0
KDO1 091800Z 34004KT 08/M08 A3038 RMK A01 T00761083  RH  031%=      5-min Rain = 0
KDO1 091801Z 03008KT 08/M09 A3038 RMK A01 T00761085  RH  031%=      5-min Rain = 0
KDO1 091802Z 06007KT 08/M09 A3038 RMK A01 T00771090  RH  030%=      5-min Rain = 0
KDO1 091803Z 07008KT 08/M09 A3038 RMK A01 T00791089  RH  029%=      5-min Rain = 0
KDO1 091804Z 06007KT 08/M09 A3038 RMK A01 T00801090  RH  029%=      5-min Rain = 0
KDO1 091805Z 07005KT 08/M09 A3038 RMK A01 T00801090  RH  029%=      5-min Rain = 0
KDO1 091806Z 04006KT 08/M09 A3038 RMK A01 T00811087  RH  029%=      5-min Rain = 0
KDO1 091807Z 04007KT 08/M09 A3038 RMK A01 T00831086  RH  029%=      5-min Rain = 0
KDO1 091808Z 04007KT 08/M09 A3038 RMK A01 T00821085  RH  030%=      5-min Rain = 0
KDO1 091809Z 04008KT 08/M09 A3038 RMK A01 T00831087  RH  029%=      5-min Rain = 0
KDO1 091810Z 04007KT 08/M09 A3038 RMK A01 T00821091  RH  028%=      5-min Rain = 0
KDO1 091811Z 01007KT 08/M09 A3038 RMK A01 T00801093  RH  028%=      5-min Rain = 0
KDO1 091812Z 01004KT 08/M09 A3038 RMK A01 T00791090  RH  029%=      5-min Rain = 0
KDO1 091813Z 01004KT 08/M09 A3038 RMK A01 T00781090  RH  029%=      5-min Rain = 0
KDO1 091814Z 04003KT 08/M09 A3038 RMK A01 T00781088  RH  030%=      5-min Rain = 0
KDO1 091815Z 06006KT 08/M09 A3038 RMK A01 T00801087  RH  030%=      5-min Rain = 0
KDO1 091816Z 06005KT 08/M08 A3037 RMK A01 T00811084  RH  030%=      5-min Rain = 0
KDO1 091817Z 04006KT 08/M08 A3037 RMK A01 T00841083  RH  030%=      5-min Rain = 0
KDO1 091818Z 04006KT 09/M09 A3037 RMK A01 T00851085  RH  029%=      5-min Rain = 0
KDO1 091819Z 02006KT 09/M09 A3037 RMK A01 T00851087  RH  029%=      5-min Rain = 0
KDO1 091820Z 03005KT 08/M09 A3037 RMK A01 T00831088  RH  029%=      5-min Rain = 0
KDO1 091821Z 02004KT 08/M09 A3037 RMK A01 T00821085  RH  030%=      5-min Rain = 0
KDO1 091822Z 01004KT 08/M09 A3037 RMK A01 T00841086  RH  029%=      5-min Rain = 0
KDO1 091823Z 04004KT 08/M09 A3037 RMK A01 T00831088  RH  029%=      5-min Rain = 0
KDO1 091824Z 05005KT 08/M09 A3037 RMK A01 T00831085  RH  029%=      5-min Rain = 0
KDO1 091825Z 05004KT 08/M09 A3037 RMK A01 T00841085  RH  029%=      5-min Rain = 0
KDO1 091826Z 04007KT 08/M09 A3037 RMK A01 T00841086  RH  029%=      5-min Rain = 0
KDO1 091827Z 07006KT 08/M09 A3037 RMK A01 T00831086  RH  029%=      5-min Rain = 0
KDO1 091828Z 03007KT 08/M09 A3037 RMK A01 T00841086  RH  029%=      5-min Rain = 0
KDO1 091829Z 04004KT 09/M09 A3037 RMK A01 T00861091  RH  028%=      5-min Rain = 0
KDO1 091830Z 04005KT 09/M09 A3037 RMK A01 T00861092  RH  027%=      5-min Rain = 0
KDO1 091831Z 04005KT 09/M09 A3037 RMK A01 T00861092  RH  028%=      5-min Rain = 0
KDO1 091832Z 03004KT 09/M09 A3036 RMK A01 T00851091  RH  028%=      5-min Rain = 0
KDO1 091833Z 03005KT 09/M09 A3036 RMK A01 T00871090  RH  028%=      5-min Rain = 0
KDO1 091834Z 03004KT 09/M09 A3036 RMK A01 T00871091  RH  027%=      5-min Rain = 0
KDO1 091835Z 02006KT 09/M09 A3036 RMK A01 T00851089  RH  028%=      5-min Rain = 0
KDO1 091836Z 02002KT 08/M09 A3036 RMK A01 T00841089  RH  028%=      5-min Rain = 0
KDO1 091837Z 36000KT 08/M09 A3036 RMK A01 T00821088  RH  029%=      5-min Rain = 0
KDO1 091838Z 31001KT 08/M09 A3036 RMK A01 T00831086  RH  029%=      5-min Rain = 0
KDO1 091839Z 34001KT 08/M09 A3036 RMK A01 T00841088  RH  029%=      5-min Rain = 0
KDO1 091840Z 01002KT 09/M08 A3036 RMK A01 T00861084  RH  029%=      5-min Rain = 0
KDO1 091841Z 07002KT 09/M09 A3036 RMK A01 T00881085  RH  028%=      5-min Rain = 0
KDO1 091842Z 03003KT 09/M09 A3036 RMK A01 T00891085  RH  028%=      5-min Rain = 0
KDO1 091843Z 06002KT 09/M08 A3036 RMK A01 T00891084  RH  028%=      5-min Rain = 0
KDO1 091844Z 09002KT 09/M09 A3036 RMK A01 T00881085  RH  028%=      5-min Rain = 0
KDO1 091845Z 06002KT 09/M08 A3036 RMK A01 T00901084  RH  028%=      5-min Rain = 0
KDO1 091846Z 08004KT 09/M08 A3035 RMK A01 T00921083  RH  028%=      5-min Rain = 0
KDO1 091847Z 08005KT 09/M09 A3035 RMK A01 T00931086  RH  027%=      5-min Rain = 0
KDO1 091848Z 07004KT 09/M09 A3035 RMK A01 T00901091  RH  027%=      5-min Rain = 0
KDO1 091849Z 06003KT 09/M09 A3035 RMK A01 T00881092  RH  027%=      5-min Rain = 0
KDO1 091850Z 06003KT 09/M09 A3035 RMK A01 T00871090  RH  028%=      5-min Rain = 0
KDO1 091851Z 05004KT 09/M09 A3035 RMK A01 T00891090  RH  027%=      5-min Rain = 0
KDO1 091852Z 06002KT 09/M09 A3035 RMK A01 T00891091  RH  027%=      5-min Rain = 0
KDO1 091853Z 08003KT 09/M09 A3035 RMK A01 T00891090  RH  027%=      5-min Rain = 0
KDO1 091854Z 04005KT 09/M09 A3035 RMK A01 T00921088  RH  027%=      5-min Rain = 0
KDO1 091855Z 05004KT 09/M09 A3035 RMK A01 T00931090  RH  026%=      5-min Rain = 0
KDO1 091856Z 04004KT 09/M09 A3035 RMK A01 T00931093  RH  026%=      5-min Rain = 0
KDO1 091857Z 03004KT 09/M09 A3035 RMK A01 T00921091  RH  026%=      5-min Rain = 0
KDO1 091858Z 04003KT 09/M09 A3035 RMK A01 T00921093  RH  026%=      5-min Rain = 0
KDO1 091859Z 01005KT 09/M10 A3035 RMK A01 T00931095  RH  026%=      5-min Rain = 0
KDO1 091900Z 00005KT 09/M10 A3035 RMK A01 T00921099  RH  025%=      5-min Rain = 0
KDO1 091901Z 02004KT 09/M10 A3035 RMK A01 T00901099  RH  025%=      5-min Rain = 0
KDO1 091902Z 04004KT 09/M10 A3035 RMK A01 T00891102  RH  025%=      5-min Rain = 0
KDO1 091903Z 03003KT 09/M10 A3035 RMK A01 T00881102  RH  025%=      5-min Rain = 0
KDO1 091904Z 04003KT 09/M10 A3035 RMK A01 T00881100  RH  025%=      5-min Rain = 0
KDO1 091905Z 02003KT 09/M10 A3035 RMK A01 T00891100  RH  025%=      5-min Rain = 0
KDO1 091906Z 05003KT 09/M10 A3035 RMK A01 T00901097  RH  026%=      5-min Rain = 0
KDO1 091907Z 04003KT 09/M10 A3035 RMK A01 T00911099  RH  025%=      5-min Rain = 0
KDO1 091908Z 05003KT 09/M10 A3035 RMK A01 T00911098  RH  025%=      5-min Rain = 0
KDO1 091909Z 06001KT 09/M10 A3035 RMK A01 T00921098  RH  025%=      5-min Rain = 0
KDO1 091910Z 32001KT 09/M10 A3035 RMK A01 T00911096  RH  026%=      5-min Rain = 0
KDO1 091911Z 05002KT 09/M09 A3035 RMK A01 T00931093  RH  026%=      5-min Rain = 0
KDO1 091912Z 04003KT 09/M10 A3035 RMK A01 T00941097  RH  025%=      5-min Rain = 0
KDO1 091913Z 04001KT 09/M10 A3035 RMK A01 T00931098  RH  025%=      5-min Rain = 0
KDO1 091914Z 02002KT 09/M10 A3034 RMK A01 T00921099  RH  025%=      5-min Rain = 0
KDO1 091915Z 02001KT 09/M10 A3034 RMK A01 T00911099  RH  025%=      5-min Rain = 0
KDO1 091916Z 02001KT 09/M10 A3034 RMK A01 T00911100  RH  025%=      5-min Rain = 0
KDO1 091917Z 04001KT 09/M10 A3034 RMK A01 T00911099  RH  025%=      5-min Rain = 0
KDO1 091918Z 06001KT 09/M10 A3034 RMK A01 T00921099  RH  025%=      5-min Rain = 0
KDO1 091919Z 02002KT 09/M10 A3034 RMK A01 T00931098  RH  025%=      5-min Rain = 0
KDO1 091920Z 35001KT 09/M10 A3034 RMK A01 T00941098  RH  025%=      5-min Rain = 0
KDO1 091921Z 06001KT 09/M10 A3034 RMK A01 T00941099  RH  025%=      5-min Rain = 0
KDO1 091922Z 07004KT 10/M09 A3034 RMK A01 T00971094  RH  025%=      5-min Rain = 0
KDO1 091923Z 07003KT 10/M10 A3034 RMK A01 T01001096  RH  024%=      5-min Rain = 0
KDO1 091924Z 12000KT 10/M10 A3034 RMK A01 T00991099  RH  024%=      5-min Rain = 0
KDO1 091925Z 32002KT 10/M10 A3034 RMK A01 T00981096  RH  024%=      5-min Rain = 0
KDO1 091926Z 33002KT 10/M10 A3034 RMK A01 T00971100  RH  024%=      5-min Rain = 0
KDO1 091927Z 35002KT 10/M10 A3034 RMK A01 T00961101  RH  024%=      5-min Rain = 0
KDO1 091928Z 35005KT 10/M10 A3034 RMK A01 T00961096  RH  025%=      5-min Rain = 0
KDO1 091929Z 00004KT 10/M09 A3034 RMK A01 T00971093  RH  025%=      5-min Rain = 0
KDO1 091930Z 00005KT 10/M10 A3034 RMK A01 T00971095  RH  025%=      5-min Rain = 0
KDO1 091931Z 01003KT 10/M10 A3034 RMK A01 T00961095  RH  025%=      5-min Rain = 0
KDO1 091932Z 02002KT 10/M10 A3034 RMK A01 T00961095  RH  025%=      5-min Rain = 0
KDO1 091933Z 32004KT 10/M10 A3034 RMK A01 T00961096  RH  025%=      5-min Rain = 0
KDO1 091934Z 30005KT 10/M10 A3034 RMK A01 T00961096  RH  025%=      5-min Rain = 0
KDO1 091935Z 30004KT 10/M09 A3034 RMK A01 T00961094  RH  025%=      5-min Rain = 0
KDO1 091936Z 29003KT 10/M09 A3034 RMK A01 T00961093  RH  025%=      5-min Rain = 0
KDO1 091937Z 27001KT 10/M09 A3034 RMK A01 T00971094  RH  025%=      5-min Rain = 0
KDO1 091938Z 23000KT 10/M09 A3033 RMK A01 T00971094  RH  025%=      5-min Rain = 0
KDO1 091939Z 32000KT 10/M09 A3033 RMK A01 T00981092  RH  025%=      5-min Rain = 0
KDO1 091940Z 25000KT 10/M09 A3033 RMK A01 T00991094  RH  025%=      5-min Rain = 0
KDO1 091941Z 15001KT 10/M09 A3033 RMK A01 T00991094  RH  025%=      5-min Rain = 0
KDO1 091942Z 04001KT 10/M09 A3033 RMK A01 T01011091  RH  025%=      5-min Rain = 0
KDO1 091943Z 02003KT 10/M09 A3033 RMK A01 T01021090  RH  025%=      5-min Rain = 0
KDO1 091944Z 03001KT 10/M09 A3033 RMK A01 T01021088  RH  025%=      5-min Rain = 0
KDO1 091945Z 00000KT 10/M09 A3033 RMK A01 T01021087  RH  025%=      5-min Rain = 0
KDO1 091946Z 23000KT 11/M09 A3033 RMK A01 T01051087  RH  025%=      5-min Rain = 0
KDO1 091947Z 30003KT 11/M09 A3033 RMK A01 T01061085  RH  025%=      5-min Rain = 0
KDO1 091948Z 29003KT 11/M09 A3033 RMK A01 T01061086  RH  025%=      5-min Rain = 0
KDO1 091949Z 20002KT 10/M09 A3033 RMK A01 T01041088  RH  025%=      5-min Rain = 0
KDO1 091950Z 19002KT 10/M09 A3033 RMK A01 T01031088  RH  025%=      5-min Rain = 0
KDO1 091951Z 24000KT 10/M08 A3033 RMK A01 T01041083  RH  026%=      5-min Rain = 0
KDO1 091952Z 33003KT 11/M09 A3033 RMK A01 T01061085  RH  025%=      5-min Rain = 0
KDO1 091953Z 33004KT 11/M09 A3033 RMK A01 T01051085  RH  025%=      5-min Rain = 0
KDO1 091954Z 33005KT 10/M09 A3033 RMK A01 T01041085  RH  026%=      5-min Rain = 0
KDO1 091955Z 32004KT 10/M09 A3033 RMK A01 T01021086  RH  026%=      5-min Rain = 0
KDO1 091956Z 28001KT 10/M09 A3033 RMK A01 T01011087  RH  026%=      5-min Rain = 0
KDO1 091957Z 27000KT 10/M09 A3033 RMK A01 T01021086  RH  026%=      5-min Rain = 0
KDO1 091958Z 29002KT 10/M08 A3033 RMK A01 T01041083  RH  026%=      5-min Rain = 0
KDO1 091959Z 28003KT 11/M08 A3033 RMK A01 T01051084  RH  026%=      5-min Rain = 0
KDO1 092000Z 24001KT 10/M08 A3032 RMK A01 T01041084  RH  026%=      5-min Rain = 0
KDO1 092001Z 22000KT 10/M08 A3033 RMK A01 T01031084  RH  026%=      5-min Rain = 0
KDO1 092002Z 22000KT 10/M08 A3033 RMK A01 T01041083  RH  026%=      5-min Rain = 0
KDO1 092003Z 29000KT 11/M08 A3033 RMK A01 T01061082  RH  026%=      5-min Rain = 0
KDO1 092004Z 00000KT 11/M08 A3033 RMK A01 T01081081  RH  026%=      5-min Rain = 0
KDO1 092005Z 16000KT 11/M08 A3033 RMK A01 T01111080  RH  025%=      5-min Rain = 0
KDO1 092006Z 03002KT 11/M08 A3033 RMK A01 T01111080  RH  025%=      5-min Rain = 0
KDO1 092007Z 35003KT 11/M08 A3033 RMK A01 T01101080  RH  026%=      5-min Rain = 0
KDO1 092008Z 34003KT 11/M08 A3033 RMK A01 T01081081  RH  026%=      5-min Rain = 0
KDO1 092009Z 33002KT 11/M08 A3033 RMK A01 T01061081  RH  026%=      5-min Rain = 0
KDO1 092010Z 31002KT 11/M08 A3033 RMK A01 T01051082  RH  026%=      5-min Rain = 0
KDO1 092011Z 33002KT 11/M08 A3033 RMK A01 T01051081  RH  026%=      5-min Rain = 0
KDO1 092012Z 32002KT 11/M08 A3032 RMK A01 T01051079  RH  027%=      5-min Rain = 0
KDO1 092013Z 32004KT 11/M08 A3032 RMK A01 T01061077  RH  027%=      5-min Rain = 0
KDO1 092014Z 32005KT 11/M08 A3032 RMK A01 T01061077  RH  027%=      5-min Rain = 0
KDO1 092015Z 33004KT 11/M08 A3032 RMK A01 T01061077  RH  027%=      5-min Rain = 0
KDO1 092016Z 35003KT 10/M08 A3032 RMK A01 T01041080  RH  027%=      5-min Rain = 0
KDO1 092017Z 35004KT 10/M08 A3032 RMK A01 T01031078  RH  027%=      5-min Rain = 0
KDO1 092018Z 00002KT 10/M08 A3032 RMK A01 T01031079  RH  027%=      5-min Rain = 0
KDO1 092019Z 02002KT 10/M08 A3032 RMK A01 T01031080  RH  027%=      5-min Rain = 0
KDO1 092020Z 03003KT 10/M08 A3032 RMK A01 T01031079  RH  027%=      5-min Rain = 0
KDO1 092021Z 04004KT 10/M08 A3032 RMK A01 T01031079  RH  027%=      5-min Rain = 0
KDO1 092022Z 05003KT 10/M08 A3032 RMK A01 T01041078  RH  027%=      5-min Rain = 0
KDO1 092023Z 05003KT 11/M08 A3032 RMK A01 T01051078  RH  027%=      5-min Rain = 0
KDO1 092024Z 08003KT 11/M07 A3032 RMK A01 T01071074  RH  027%=      5-min Rain = 0
KDO1 092025Z 09002KT 11/M07 A3032 RMK A01 T01091073  RH  027%=      5-min Rain = 0
KDO1 092026Z 10002KT 11/M07 A3032 RMK A01 T01111074  RH  027%=      5-min Rain = 0
KDO1 092027Z 12001KT 11/M07 A3032 RMK A01 T01121073  RH  027%=      5-min Rain = 0
KDO1 092028Z 16000KT 11/M07 A3032 RMK A01 T01131074  RH  026%=      5-min Rain = 0
KDO1 092029Z 13001KT 12/M07 A3032 RMK A01 T01151072  RH  026%=      5-min Rain = 0
KDO1 092030Z 12001KT 12/M07 A3032 RMK A01 T01171070  RH  026%=      5-min Rain = 0
KDO1 092031Z 04001KT 12/M07 A3032 RMK A01 T01181071  RH  026%=      5-min Rain = 0
KDO1 092032Z 04002KT 12/M07 A3032 RMK A01 T01181074  RH  025%=      5-min Rain = 0
KDO1 092033Z 00004KT 12/M07 A3032 RMK A01 T01151074  RH  026%=      5-min Rain = 0
KDO1 092034Z 01004KT 11/M08 A3032 RMK A01 T01121075  RH  026%=      5-min Rain = 0
KDO1 092035Z 03001KT 11/M08 A3032 RMK A01 T01091078  RH  026%=      5-min Rain = 0
KDO1 092036Z 36003KT 11/M08 A3032 RMK A01 T01071077  RH  027%=      5-min Rain = 0
KDO1 092037Z 35002KT 11/M08 A3032 RMK A01 T01061077  RH  027%=      5-min Rain = 0
KDO1 092038Z 00001KT 11/M08 A3032 RMK A01 T01061076  RH  027%=      5-min Rain = 0
KDO1 092039Z 31001KT 11/M08 A3032 RMK A01 T01061076  RH  027%=      5-min Rain = 0
KDO1 092040Z 29001KT 11/M07 A3032 RMK A01 T01061074  RH  027%=      5-min Rain = 0
KDO1 092041Z 35001KT 11/M07 A3032 RMK A01 T01081073  RH  027%=      5-min Rain = 0
KDO1 092042Z 35001KT 11/M08 A3032 RMK A01 T01091075  RH  027%=      5-min Rain = 0
KDO1 092043Z 00000KT 11/M08 A3032 RMK A01 T01081075  RH  027%=      5-min Rain = 0
KDO1 092044Z 21000KT 11/M07 A3032 RMK A01 T01101072  RH  027%=      5-min Rain = 0
KDO1 092045Z 19001KT 11/M07 A3032 RMK A01 T01141071  RH  027%=      5-min Rain = 0
KDO1 092046Z 21002KT 12/M07 A3032 RMK A01 T01161074  RH  026%=      5-min Rain = 0
KDO1 092047Z 19001KT 11/M08 A3031 RMK A01 T01141075  RH  026%=      5-min Rain = 0
KDO1 092048Z 19003KT 11/M07 A3031 RMK A01 T01141074  RH  026%=      5-min Rain = 0
KDO1 092049Z 19003KT 12/M07 A3031 RMK A01 T01161074  RH  026%=      5-min Rain = 0
KDO1 092050Z 20002KT 12/M08 A3031 RMK A01 T01151075  RH  026%=      5-min Rain = 0
KDO1 092051Z 23000KT 11/M08 A3031 RMK A01 T01131077  RH  026%=      5-min Rain = 0
KDO1 092052Z 26001KT 11/M08 A3031 RMK A01 T01131078  RH  026%=      5-min Rain = 0
KDO1 092053Z 27001KT 11/M08 A3032 RMK A01 T01131079  RH  025%=      5-min Rain = 0
KDO1 092054Z 26001KT 11/M08 A3032 RMK A01 T01131075  RH  026%=      5-min Rain = 0
KDO1 092055Z 31000KT 12/M07 A3032 RMK A01 T01151073  RH  026%=      5-min Rain = 0
KDO1 092056Z 25001KT 12/M07 A3032 RMK A01 T01161074  RH  026%=      5-min Rain = 0
KDO1 092057Z 25002KT 12/M08 A3032 RMK A01 T01161076  RH  025%=      5-min Rain = 0
KDO1 092058Z 25002KT 12/M08 A3032 RMK A01 T01151077  RH  025%=      5-min Rain = 0
KDO1 092059Z 26001KT 11/M08 A3032 RMK A01 T01141076  RH  026%=      5-min Rain = 0
KDO1 092100Z 25001KT 12/M07 A3032 RMK A01 T01151073  RH  026%=      5-min Rain = 0
KDO1 092101Z 30001KT 12/M07 A3032 RMK A01 T01171072  RH  026%=      5-min Rain = 0
KDO1 092102Z 32002KT 12/M07 A3032 RMK A01 T01181072  RH  026%=      5-min Rain = 0
KDO1 092103Z 35003KT 12/M08 A3032 RMK A01 T01171075  RH  025%=      5-min Rain = 0
KDO1 092104Z 35002KT 12/M08 A3032 RMK A01 T01151076  RH  025%=      5-min Rain = 0
KDO1 092105Z 31002KT 12/M08 A3032 RMK A01 T01151075  RH  026%=      5-min Rain = 0
KDO1 092106Z 33000KT 11/M08 A3032 RMK A01 T01141075  RH  026%=      5-min Rain = 0
KDO1 092107Z 29002KT 11/M08 A3032 RMK A01 T01141075  RH  026%=      5-min Rain = 0
KDO1 092108Z 29001KT 11/M08 A3032 RMK A01 T01141075  RH  026%=      5-min Rain = 0
KDO1 092109Z 27002KT 11/M08 A3032 RMK A01 T01141075  RH  026%=      5-min Rain = 0
KDO1 092110Z 27001KT 11/M08 A3032 RMK A01 T01131076  RH  026%=      5-min Rain = 0
KDO1 092111Z 24001KT 11/M08 A3032 RMK A01 T01121077  RH  026%=      5-min Rain = 0
KDO1 092112Z 24000KT 11/M08 A3032 RMK A01 T01121076  RH  026%=      5-min Rain = 0
KDO1 092113Z 18002KT 11/M07 A3032 RMK A01 T01141074  RH  026%=      5-min Rain = 0
KDO1 092114Z 19004KT 12/M07 A3032 RMK A01 T01161072  RH  026%=      5-min Rain = 0
KDO1 092115Z 18002KT 12/M07 A3032 RMK A01 T01171073  RH  026%=      5-min Rain = 0
KDO1 092116Z 18001KT 12/M07 A3032 RMK A01 T01171073  RH  026%=      5-min Rain = 0
KDO1 092117Z 34003KT 12/M07 A3032 RMK A01 T01181072  RH  026%=      5-min Rain = 0
KDO1 092118Z 24003KT 12/M07 A3032 RMK A01 T01181069  RH  026%=      5-min Rain = 0
KDO1 092119Z 25004KT 12/M07 A3032 RMK A01 T01191071  RH  026%=      5-min Rain = 0
KDO1 092120Z 29005KT 12/M07 A3032 RMK A01 T01181072  RH  026%=      5-min Rain = 0
KDO1 092121Z 31003KT 12/M07 A3032 RMK A01 T01171071  RH  026%=      5-min Rain = 0
KDO1 092122Z 30001KT 12/M07 A3032 RMK A01 T01171070  RH  026%=      5-min Rain = 0
KDO1 092123Z 32004KT 12/M07 A3032 RMK A01 T01171070  RH  026%=      5-min Rain = 0
KDO1 092124Z 35003KT 12/M07 A3032 RMK A01 T01171072  RH  026%=      5-min Rain = 0
KDO1 092125Z 02002KT 12/M07 A3032 RMK A01 T01151073  RH  026%=      5-min Rain = 0
KDO1 092126Z 05000KT 11/M07 A3032 RMK A01 T01141074  RH  026%=      5-min Rain = 0
KDO1 092127Z 19001KT 12/M07 A3032 RMK A01 T01151072  RH  026%=      5-min Rain = 0
KDO1 092128Z 20000KT 12/M07 A3032 RMK A01 T01181072  RH  026%=      5-min Rain = 0
KDO1 092129Z 20001KT 12/M07 A3032 RMK A01 T01191073  RH  025%=      5-min Rain = 0
KDO1 092130Z 19000KT 12/M07 A3032 RMK A01 T01201071  RH  026%=      5-min Rain = 0
KDO1 092131Z 08001KT 12/M07 A3032 RMK A01 T01221070  RH  025%=      5-min Rain = 0
KDO1 092132Z 08002KT 12/M07 A3032 RMK A01 T01221072  RH  025%=      5-min Rain = 0
KDO1 092133Z 04003KT 12/M07 A3032 RMK A01 T01211071  RH  025%=      5-min Rain = 0
KDO1 092134Z 04004KT 12/M07 A3032 RMK A01 T01201071  RH  026%=      5-min Rain = 0
KDO1 092135Z 05002KT 12/M07 A3032 RMK A01 T01181072  RH  026%=      5-min Rain = 0
KDO1 092136Z 03003KT 12/M07 A3032 RMK A01 T01171071  RH  026%=      5-min Rain = 0
KDO1 092137Z 31002KT 12/M07 A3032 RMK A01 T01171071  RH  026%=      5-min Rain = 0
KDO1 092138Z 31003KT 12/M07 A3032 RMK A01 T01171072  RH  026%=      5-min Rain = 0
KDO1 092139Z 30001KT 12/M07 A3032 RMK A01 T01161074  RH  026%=      5-min Rain = 0
KDO1 092140Z 29001KT 12/M07 A3032 RMK A01 T01161074  RH  026%=      5-min Rain = 0
KDO1 092141Z 29002KT 12/M07 A3032 RMK A01 T01171074  RH  026%=      5-min Rain = 0
KDO1 092142Z 30002KT 12/M08 A3032 RMK A01 T01161075  RH  025%=      5-min Rain = 0
KDO1 092143Z 25001KT 12/M08 A3032 RMK A01 T01151075  RH  026%=      5-min Rain = 0
KDO1 092144Z 00000KT 12/M07 A3032 RMK A01 T01151074  RH  026%=      5-min Rain = 0
KDO1 092145Z 29000KT 12/M07 A3032 RMK A01 T01171073  RH  026%=      5-min Rain = 0
KDO1 092146Z 26002KT 12/M07 A3032 RMK A01 T01191071  RH  026%=      5-min Rain = 0
KDO1 092147Z 26001KT 12/M07 A3032 RMK A01 T01201071  RH  026%=      5-min Rain = 0
KDO1 092148Z 26002KT 12/M07 A3032 RMK A01 T01211070  RH  026%=      5-min Rain = 0
KDO1 092149Z 25003KT 12/M07 A3032 RMK A01 T01201070  RH  026%=      5-min Rain = 0
KDO1 092150Z 22003KT 12/M07 A3032 RMK A01 T01201072  RH  026%=      5-min Rain = 0
KDO1 092151Z 24003KT 12/M07 A3032 RMK A01 T01191071  RH  026%=      5-min Rain = 0
KDO1 092152Z 25004KT 12/M07 A3032 RMK A01 T01201069  RH  026%=      5-min Rain = 0
KDO1 092153Z 25003KT 12/M07 A3032 RMK A01 T01191070  RH  026%=      5-min Rain = 0
KDO1 092154Z 27002KT 12/M07 A3032 RMK A01 T01191069  RH  026%=      5-min Rain = 0
KDO1 092155Z 25003KT 12/M07 A3032 RMK A01 T01181070  RH  026%=      5-min Rain = 0
KDO1 092156Z 24002KT 12/M07 A3032 RMK A01 T01181070  RH  026%=      5-min Rain = 0
KDO1 092157Z 23003KT 12/M07 A3032 RMK A01 T01181069  RH  026%=      5-min Rain = 0
KDO1 092158Z 22003KT 12/M07 A3032 RMK A01 T01181069  RH  026%=      5-min Rain = 0
KDO1 092159Z 22003KT 12/M07 A3032 RMK A01 T01181069  RH  026%=      5-min Rain = 0
KDO1 092200Z 22003KT 12/M07 A3032 RMK A01 T01181070  RH  026%=      5-min Rain = 0
KDO1 092201Z 23002KT 12/M07 A3032 RMK A01 T01171071  RH  026%=      5-min Rain = 0
KDO1 092202Z 26001KT 12/M07 A3032 RMK A01 T01171071  RH  026%=      5-min Rain = 0
KDO1 092203Z 20000KT 12/M07 A3032 RMK A01 T01171071  RH  026%=      5-min Rain = 0
KDO1 092204Z 19001KT 12/M07 A3032 RMK A01 T01171072  RH  026%=      5-min Rain = 0
KDO1 092205Z 23001KT 12/M07 A3032 RMK A01 T01171071  RH  026%=      5-min Rain = 0
KDO1 092206Z 24000KT 12/M07 A3032 RMK A01 T01181070  RH  026%=      5-min Rain = 0
KDO1 092207Z 00000KT 12/M07 A3032 RMK A01 T01191070  RH  026%=      5-min Rain = 0
KDO1 092208Z 25001KT 12/M07 A3032 RMK A01 T01201070  RH  026%=      5-min Rain = 0
KDO1 092209Z 24000KT 12/M07 A3032 RMK A01 T01201069  RH  026%=      5-min Rain = 0
KDO1 092210Z 25003KT 12/M07 A3032 RMK A01 T01221067  RH  026%=      5-min Rain = 0
KDO1 092211Z 26003KT 12/M07 A3032 RMK A01 T01221068  RH  026%=      5-min Rain = 0
KDO1 092212Z 25002KT 12/M07 A3032 RMK A01 T01201071  RH  026%=      5-min Rain = 0
KDO1 092213Z 26001KT 12/M07 A3032 RMK A01 T01181072  RH  026%=      5-min Rain = 0
KDO1 092214Z 23002KT 12/M07 A3032 RMK A01 T01181071  RH  026%=      5-min Rain = 0
KDO1 092215Z 23002KT 12/M07 A3032 RMK A01 T01181068  RH  027%=      5-min Rain = 0
KDO1 092216Z 22002KT 12/M07 A3032 RMK A01 T01191070  RH  026%=      5-min Rain = 0
KDO1 092217Z 23001KT 12/M07 A3032 RMK A01 T01191070  RH  026%=      5-min Rain = 0
KDO1 092218Z 17000KT 12/M07 A3032 RMK A01 T01191068  RH  026%=      5-min Rain = 0
KDO1 092219Z 14000KT 12/M07 A3032 RMK A01 T01211067  RH  026%=      5-min Rain = 0
KDO1 092220Z 19001KT 12/M07 A3032 RMK A01 T01221068  RH  026%=      5-min Rain = 0
KDO1 092221Z 15000KT 12/M07 A3032 RMK A01 T01221069  RH  026%=      5-min Rain = 0
KDO1 092222Z 17000KT 12/M07 A3032 RMK A01 T01211067  RH  026%=      5-min Rain = 0
KDO1 092223Z 00000KT 12/M07 A3032 RMK A01 T01211066  RH  026%=      5-min Rain = 0
KDO1 092224Z 10001KT 12/M07 A3032 RMK A01 T01201069  RH  026%=      5-min Rain = 0
KDO1 092225Z 11000KT 12/M07 A3032 RMK A01 T01211068  RH  026%=      5-min Rain = 0
KDO1 092226Z 11001KT 12/M07 A3032 RMK A01 T01201068  RH  026%=      5-min Rain = 0
KDO1 092227Z 12001KT 12/M07 A3032 RMK A01 T01201068  RH  026%=      5-min Rain = 0
KDO1 092228Z 18001KT 12/M07 A3032 RMK A01 T01201069  RH  026%=      5-min Rain = 0
KDO1 092229Z 23001KT 12/M07 A3032 RMK A01 T01201067  RH  026%=      5-min Rain = 0
KDO1 092230Z 20000KT 12/M07 A3032 RMK A01 T01211067  RH  026%=      5-min Rain = 0
KDO1 092231Z 21001KT 12/M07 A3032 RMK A01 T01221067  RH  026%=      5-min Rain = 0
KDO1 092232Z 22001KT 12/M07 A3032 RMK A01 T01221068  RH  026%=      5-min Rain = 0
KDO1 092233Z 24001KT 12/M07 A3032 RMK A01 T01221068  RH  026%=      5-min Rain = 0
KDO1 092234Z 21001KT 12/M07 A3032 RMK A01 T01221068  RH  026%=      5-min Rain = 0
KDO1 092235Z 21001KT 12/M07 A3032 RMK A01 T01221068  RH  026%=      5-min Rain = 0
KDO1 092236Z 28001KT 12/M07 A3032 RMK A01 T01221067  RH  026%=      5-min Rain = 0
KDO1 092237Z 35001KT 12/M07 A3032 RMK A01 T01211067  RH  026%=      5-min Rain = 0
KDO1 092238Z 36001KT 12/M07 A3032 RMK A01 T01191068  RH  026%=      5-min Rain = 0
KDO1 092239Z 36002KT 12/M07 A3032 RMK A01 T01171070  RH  026%=      5-min Rain = 0
KDO1 092240Z 35001KT 12/M07 A3032 RMK A01 T01151071  RH  027%=      5-min Rain = 0
KDO1 092241Z 35002KT 11/M07 A3032 RMK A01 T01141072  RH  026%=      5-min Rain = 0
KDO1 092242Z 34002KT 11/M07 A3033 RMK A01 T01131071  RH  027%=      5-min Rain = 0
KDO1 092243Z 35002KT 11/M07 A3033 RMK A01 T01131072  RH  027%=      5-min Rain = 0
KDO1 092244Z 00002KT 11/M07 A3033 RMK A01 T01121073  RH  027%=      5-min Rain = 0
KDO1 092245Z 03003KT 11/M07 A3033 RMK A01 T01111071  RH  027%=      5-min Rain = 0
KDO1 092246Z 05004KT 11/M07 A3033 RMK A01 T01111070  RH  027%=      5-min Rain = 0
KDO1 092247Z 04003KT 11/M07 A3033 RMK A01 T01101070  RH  028%=      5-min Rain = 0
KDO1 092248Z 02004KT 11/M07 A3033 RMK A01 T01091070  RH  028%=      5-min Rain = 0
KDO1 092249Z 02003KT 11/M07 A3033 RMK A01 T01091069  RH  028%=      5-min Rain = 0
KDO1 092250Z 02003KT 11/M07 A3033 RMK A01 T01081070  RH  028%=      5-min Rain = 0
KDO1 092251Z 02003KT 11/M07 A3033 RMK A01 T01071070  RH  028%=      5-min Rain = 0
KDO1 092252Z 03003KT 11/M07 A3033 RMK A01 T01071069  RH  028%=      5-min Rain = 0
KDO1 092253Z 03003KT 11/M07 A3033 RMK A01 T01061069  RH  029%=      5-min Rain = 0
KDO1 092254Z 03003KT 11/M07 A3033 RMK A01 T01051069  RH  029%=      5-min Rain = 0
KDO1 092255Z 03004KT 11/M07 A3033 RMK A01 T01051069  RH  029%=      5-min Rain = 0
KDO1 092256Z 03004KT 10/M07 A3033 RMK A01 T01041069  RH  029%=      5-min Rain = 0
KDO1 092257Z 03003KT 10/M07 A3033 RMK A01 T01031069  RH  029%=      5-min Rain = 0
KDO1 092258Z 03003KT 10/M07 A3033 RMK A01 T01021068  RH  029%=      5-min Rain = 0
KDO1 092259Z 03003KT 10/M07 A3033 RMK A01 T01021069  RH  030%=      5-min Rain = 0
KDO1 092300Z 03002KT 10/M07 A3033 RMK A01 T01011068  RH  030%=      5-min Rain = 0
KDO1 092301Z 03002KT 10/M07 A3033 RMK A01 T01001069  RH  030%=      5-min Rain = 0
KDO1 092302Z 04002KT 10/M07 A3033 RMK A01 T01001069  RH  030%=      5-min Rain = 0
KDO1 092303Z 04002KT 10/M07 A3033 RMK A01 T01001069  RH  030%=      5-min Rain = 0
KDO1 092304Z 05002KT 10/M07 A3033 RMK A01 T00991069  RH  030%=      5-min Rain = 0
KDO1 092305Z 05001KT 10/M07 A3033 RMK A01 T00991069  RH  030%=      5-min Rain = 0
KDO1 092306Z 08001KT 10/M07 A3033 RMK A01 T00981069  RH  030%=      5-min Rain = 0
KDO1 092307Z 11002KT 10/M07 A3033 RMK A01 T00981069  RH  030%=      5-min Rain = 0
KDO1 092308Z 11002KT 10/M07 A3033 RMK A01 T00971068  RH  030%=      5-min Rain = 0
KDO1 092309Z 11003KT 10/M07 A3033 RMK A01 T00971069  RH  031%=      5-min Rain = 0
KDO1 092310Z 12002KT 10/M07 A3033 RMK A01 T00961069  RH  031%=      5-min Rain = 0
KDO1 092311Z 13002KT 10/M07 A3033 RMK A01 T00961069  RH  031%=      5-min Rain = 0
KDO1 092312Z 14002KT 10/M07 A3033 RMK A01 T00951070  RH  031%=      5-min Rain = 0
KDO1 092313Z 15002KT 10/M07 A3033 RMK A01 T00951070  RH  031%=      5-min Rain = 0
KDO1 092314Z 15002KT 09/M07 A3033 RMK A01 T00941070  RH  031%=      5-min Rain = 0
KDO1 092315Z 15002KT 09/M07 A3033 RMK A01 T00941071  RH  031%=      5-min Rain = 0
KDO1 092316Z 15003KT 09/M07 A3033 RMK A01 T00931072  RH  030%=      5-min Rain = 0
KDO1 092317Z 14003KT 09/M07 A3033 RMK A01 T00941073  RH  030%=      5-min Rain = 0
KDO1 092318Z 14003KT 09/M08 A3033 RMK A01 T00941076  RH  030%=      5-min Rain = 0
KDO1 092319Z 14003KT 09/M08 A3033 RMK A01 T00941077  RH  029%=      5-min Rain = 0
KDO1 092320Z 14003KT 09/M08 A3033 RMK A01 T00931077  RH  029%=      5-min Rain = 0
KDO1 092321Z 13002KT 09/M08 A3033 RMK A01 T00921076  RH  030%=      5-min Rain = 0
KDO1 092322Z 11001KT 09/M08 A3033 RMK A01 T00911075  RH  030%=      5-min Rain = 0
KDO1 092323Z 09001KT 09/M08 A3033 RMK A01 T00911076  RH  030%=      5-min Rain = 0
KDO1 092324Z 10001KT 09/M08 A3033 RMK A01 T00901076  RH  030%=      5-min Rain = 0
KDO1 092325Z 13002KT 09/M08 A3033 RMK A01 T00891076  RH  030%=      5-min Rain = 0
KDO1 092326Z 14002KT 09/M08 A3033 RMK A01 T00891077  RH  030%=      5-min Rain = 0
KDO1 092327Z 14002KT 09/M08 A3033 RMK A01 T00891077  RH  030%=      5-min Rain = 0
KDO1 092328Z 14002KT 09/M08 A3033 RMK A01 T00881078  RH  030%=      5-min Rain = 0
KDO1 092329Z 14002KT 09/M08 A3033 RMK A01 T00871078  RH  030%=      5-min Rain = 0
KDO1 092330Z 14002KT 09/M08 A3033 RMK A01 T00861079  RH  030%=      5-min Rain = 0
KDO1 092331Z 14002KT 09/M08 A3033 RMK A01 T00861079  RH  030%=      5-min Rain = 0
KDO1 092332Z 14002KT 09/M08 A3033 RMK A01 T00851080  RH  030%=      5-min Rain = 0
KDO1 092333Z 12001KT 08/M08 A3033 RMK A01 T00841080  RH  030%=      5-min Rain = 0
KDO1 092334Z 12001KT 08/M08 A3033 RMK A01 T00831080  RH  031%=      5-min Rain = 0
KDO1 092335Z 12001KT 08/M08 A3033 RMK A01 T00831080  RH  031%=      5-min Rain = 0
KDO1 092336Z 12001KT 08/M08 A3033 RMK A01 T00821080  RH  031%=      5-min Rain = 0
KDO1 092337Z 12002KT 08/M08 A3033 RMK A01 T00821079  RH  031%=      5-min Rain = 0
KDO1 092338Z 14002KT 08/M08 A3033 RMK A01 T00821079  RH  031%=      5-min Rain = 0
KDO1 092339Z 14002KT 08/M08 A3033 RMK A01 T00821080  RH  031%=      5-min Rain = 0
KDO1 092340Z 13002KT 08/M08 A3033 RMK A01 T00811080  RH  031%=      5-min Rain = 0
KDO1 092341Z 13003KT 08/M08 A3033 RMK A01 T00811081  RH  031%=      5-min Rain = 0
KDO1 092342Z 12002KT 08/M08 A3033 RMK A01 T00801081  RH  031%=      5-min Rain = 0
KDO1 092343Z 13002KT 08/M08 A3033 RMK A01 T00801082  RH  031%=      5-min Rain = 0
KDO1 092344Z 13001KT 08/M08 A3033 RMK A01 T00791083  RH  031%=      5-min Rain = 0
KDO1 092345Z 11001KT 08/M08 A3033 RMK A01 T00791082  RH  031%=      5-min Rain = 0
KDO1 092346Z 11001KT 08/M08 A3033 RMK A01 T00791082  RH  031%=      5-min Rain = 0
KDO1 092347Z 11001KT 08/M08 A3033 RMK A01 T00791082  RH  031%=      5-min Rain = 0
KDO1 092348Z 11001KT 08/M08 A3033 RMK A01 T00791082  RH  031%=      5-min Rain = 0
KDO1 092349Z 11001KT 08/M08 A3033 RMK A01 T00801082  RH  031%=      5-min Rain = 0
KDO1 092350Z 12001KT 08/M08 A3033 RMK A01 T00791082  RH  031%=      5-min Rain = 0
KDO1 092351Z 13001KT 08/M08 A3033 RMK A01 T00791082  RH  031%=      5-min Rain = 0
KDO1 092352Z 14001KT 08/M08 A3033 RMK A01 T00781082  RH  031%=      5-min Rain = 0
KDO1 092353Z 13001KT 08/M08 A3033 RMK A01 T00781083  RH  031%=      5-min Rain = 0
KDO1 092354Z 13001KT 08/M08 A3033 RMK A01 T00771083  RH  031%=      5-min Rain = 0
KDO1 092355Z 14001KT 08/M08 A3033 RMK A01 T00761083  RH  031%=      5-min Rain = 0
KDO1 092356Z 14001KT 08/M08 A3033 RMK A01 T00751083  RH  032%=      5-min Rain = 0
KDO1 092357Z 14001KT 07/M08 A3033 RMK A01 T00741082  RH  032%=      5-min Rain = 0
KDO1 092358Z 16001KT 07/M08 A3033 RMK A01 T00741081  RH  032%=      5-min Rain = 0
KDO1 092359Z 16001KT 07/M08 A3033 RMK A01 T00721080  RH  033%=      5-min Rain = 0
KDO1 100000Z 15001KT 07/M08 A3033 RMK A01 T00701081  RH  033%=      5-min Rain = 0
KDO1 100001Z 15001KT 07/M08 A3033 RMK A01 T00691082  RH  033%=      5-min Rain = 0
KDO1 100002Z 16001KT 07/M08 A3033 RMK A01 T00691082  RH  033%=      5-min Rain = 0
KDO1 100003Z 16002KT 07/M08 A3033 RMK A01 T00691082  RH  033%=      5-min Rain = 0
KDO1 100004Z 17002KT 07/M08 A3033 RMK A01 T00691083  RH  033%=      5-min Rain = 0
KDO1 100005Z 17001KT 07/M08 A3033 RMK A01 T00691083  RH  033%=      5-min Rain = 0
KDO1 100006Z 17002KT 07/M08 A3034 RMK A01 T00691082  RH  033%=      5-min Rain = 0
KDO1 100007Z 17001KT 07/M08 A3034 RMK A01 T00701082  RH  033%=      5-min Rain = 0
KDO1 100008Z 17001KT 07/M08 A3034 RMK A01 T00691083  RH  033%=      5-min Rain = 0
KDO1 100009Z 17001KT 07/M08 A3034 RMK A01 T00691083  RH  033%=      5-min Rain = 0
KDO1 100010Z 16001KT 07/M08 A3034 RMK A01 T00691083  RH  033%=      5-min Rain = 0
KDO1 100011Z 16000KT 07/M08 A3034 RMK A01 T00681083  RH  033%=      5-min Rain = 0
KDO1 100012Z 16000KT 07/M08 A3034 RMK A01 T00671083  RH  033%=      5-min Rain = 0
KDO1 100013Z 16000KT 07/M08 A3034 RMK A01 T00661082  RH  034%=      5-min Rain = 0
KDO1 100014Z 16000KT 07/M08 A3034 RMK A01 T00651083  RH  034%=      5-min Rain = 0
KDO1 100015Z 16000KT 07/M08 A3034 RMK A01 T00651084  RH  034%=      5-min Rain = 0
KDO1 100016Z 17001KT 07/M08 A3034 RMK A01 T00661084  RH  033%=      5-min Rain = 0
KDO1 100017Z 19000KT 07/M08 A3034 RMK A01 T00661084  RH  033%=      5-min Rain = 0
KDO1 100018Z 22001KT 07/M08 A3034 RMK A01 T00661083  RH  034%=      5-min Rain = 0
KDO1 100019Z 23001KT 07/M08 A3034 RMK A01 T00661083  RH  034%=      5-min Rain = 0
KDO1 100020Z 23001KT 06/M08 A3034 RMK A01 T00641084  RH  034%=      5-min Rain = 0
KDO1 100021Z 22000KT 06/M08 A3034 RMK A01 T00641084  RH  034%=      5-min Rain = 0
KDO1 100022Z 00000KT 06/M08 A3034 RMK A01 T00641084  RH  034%=      5-min Rain = 0
KDO1 100023Z 00000KT 06/M09 A3034 RMK A01 T00641085  RH  034%=      5-min Rain = 0
KDO1 100024Z 00000KT 07/M09 A3034 RMK A01 T00651085  RH  033%=      5-min Rain = 0
KDO1 100025Z 00000KT 07/M08 A3034 RMK A01 T00651084  RH  033%=      5-min Rain = 0
KDO1 100026Z 00000KT 07/M08 A3034 RMK A01 T00651084  RH  033%=      5-min Rain = 0
KDO1 100027Z 00000KT 07/M08 A3034 RMK A01 T00651083  RH  034%=      5-min Rain = 0
KDO1 100028Z 00000KT 06/M08 A3034 RMK A01 T00641084  RH  034%=      5-min Rain = 0
KDO1 100029Z 00000KT 06/M09 A3035 RMK A01 T00641085  RH  034%=      5-min Rain = 0
KDO1 100030Z 00000KT 07/M09 A3035 RMK A01 T00651085  RH  033%=      5-min Rain = 0
KDO1 100031Z 35000KT 07/M09 A3035 RMK A01 T00651085  RH  033%=      5-min Rain = 0
KDO1 100032Z 00001KT 07/M09 A3035 RMK A01 T00651085  RH  033%=      5-min Rain = 0
KDO1 100033Z 01002KT 07/M08 A3035 RMK A01 T00651084  RH  033%=      5-min Rain = 0
KDO1 100034Z 01002KT 07/M08 A3035 RMK A01 T00651083  RH  034%=      5-min Rain = 0
KDO1 100035Z 00002KT 06/M08 A3035 RMK A01 T00641083  RH  034%=      5-min Rain = 0
KDO1 100036Z 00002KT 06/M08 A3035 RMK A01 T00611082  RH  035%=      5-min Rain = 0
KDO1 100037Z 35003KT 06/M08 A3035 RMK A01 T00581081  RH  036%=      5-min Rain = 0
KDO1 100038Z 35003KT 06/M08 A3035 RMK A01 T00551080  RH  037%=      5-min Rain = 0
KDO1 100039Z 35003KT 05/M08 A3035 RMK A01 T00541079  RH  038%=      5-min Rain = 0
KDO1 100040Z 35004KT 05/M08 A3035 RMK A01 T00521078  RH  038%=      5-min Rain = 0
KDO1 100041Z 35004KT 05/M08 A3035 RMK A01 T00511077  RH  039%=      5-min Rain = 0
KDO1 100042Z 35004KT 05/M08 A3035 RMK A01 T00511077  RH  039%=      5-min Rain = 0
KDO1 100043Z 35004KT 05/M08 A3035 RMK A01 T00511078  RH  039%=      5-min Rain = 0
KDO1 100044Z 34004KT 05/M08 A3035 RMK A01 T00511079  RH  039%=      5-min Rain = 0
KDO1 100045Z 34004KT 05/M08 A3035 RMK A01 T00501078  RH  039%=      5-min Rain = 0
KDO1 100046Z 33003KT 05/M08 A3035 RMK A01 T00481077  RH  040%=      5-min Rain = 0
KDO1 100047Z 33003KT 05/M08 A3035 RMK A01 T00471076  RH  040%=      5-min Rain = 0
KDO1 100048Z 33003KT 05/M08 A3035 RMK A01 T00461075  RH  041%=      5-min Rain = 0
KDO1 100049Z 33003KT 05/M08 A3035 RMK A01 T00451076  RH  041%=      5-min Rain = 0
KDO1 100050Z 33003KT 04/M08 A3035 RMK A01 T00441075  RH  042%=      5-min Rain = 0
KDO1 100051Z 33003KT 04/M08 A3035 RMK A01 T00431076  RH  042%=      5-min Rain = 0
KDO1 100052Z 34003KT 04/M08 A3035 RMK A01 T00421075  RH  042%=      5-min Rain = 0
KDO1 100053Z 34003KT 04/M08 A3035 RMK A01 T00431077  RH  041%=      5-min Rain = 0
KDO1 100054Z 34004KT 05/M08 A3035 RMK A01 T00471077  RH  040%=      5-min Rain = 0
KDO1 100055Z 35004KT 05/M08 A3035 RMK A01 T00481077  RH  040%=      5-min Rain = 0
KDO1 100056Z 34003KT 05/M08 A3035 RMK A01 T00491077  RH  040%=      5-min Rain = 0
KDO1 100057Z 34002KT 05/M08 A3035 RMK A01 T00491077  RH  040%=      5-min Rain = 0
KDO1 100058Z 34002KT 05/M08 A3035 RMK A01 T00481076  RH  040%=      5-min Rain = 0
KDO1 100059Z 32002KT 05/M08 A3035 RMK A01 T00481077  RH  040%=      5-min Rain = 0
KDO1 100100Z 31002KT 05/M08 A3035 RMK A01 T00481078  RH  039%=      5-min Rain = 0
KDO1 100101Z 31002KT 05/M08 A3035 RMK A01 T00501078  RH  039%=      5-min Rain = 0
KDO1 100102Z 30002KT 05/M08 A3035 RMK A01 T00501077  RH  039%=      5-min Rain = 0
KDO1 100103Z 28003KT 05/M08 A3035 RMK A01 T00471077  RH  040%=      5-min Rain = 0
KDO1 100104Z 27003KT 05/M08 A3035 RMK A01 T00461079  RH  040%=      5-min Rain = 0
KDO1 100105Z 27003KT 05/M08 A3035 RMK A01 T00481079  RH  039%=      5-min Rain = 0
KDO1 100106Z 25003KT 05/M08 A3035 RMK A01 T00501080  RH  038%=      5-min Rain = 0
KDO1 100107Z 24003KT 05/M08 A3035 RMK A01 T00511080  RH  038%=      5-min Rain = 0
KDO1 100108Z 25003KT 05/M08 A3036 RMK A01 T00521080  RH  038%=      5-min Rain = 0
KDO1 100109Z 24003KT 05/M08 A3036 RMK A01 T00521080  RH  038%=      5-min Rain = 0
KDO1 100110Z 23004KT 05/M08 A3036 RMK A01 T00521080  RH  038%=      5-min Rain = 0
KDO1 100111Z 23004KT 05/M08 A3035 RMK A01 T00521080  RH  038%=      5-min Rain = 0
KDO1 100112Z 23003KT 05/M08 A3035 RMK A01 T00521081  RH  038%=      5-min Rain = 0
KDO1 100113Z 23003KT 05/M08 A3035 RMK A01 T00521081  RH  037%=      5-min Rain = 0
KDO1 100114Z 23003KT 05/M08 A3035 RMK A01 T00531080  RH  038%=      5-min Rain = 0
KDO1 100115Z 23002KT 05/M08 A3035 RMK A01 T00521079  RH  038%=      5-min Rain = 0
KDO1 100116Z 23002KT 05/M08 A3035 RMK A01 T00501078  RH  039%=      5-min Rain = 0
KDO1 100117Z 24002KT 05/M08 A3036 RMK A01 T00481079  RH  039%=      5-min Rain = 0
KDO1 100118Z 25002KT 05/M08 A3036 RMK A01 T00471078  RH  040%=      5-min Rain = 0
KDO1 100119Z 24003KT 04/M08 A3036 RMK A01 T00441079  RH  041%=      5-min Rain = 0
KDO1 100120Z 24003KT 04/M08 A3036 RMK A01 T00421078  RH  041%=      5-min Rain = 0
KDO1 100121Z 23003KT 04/M08 A3035 RMK A01 T00411079  RH  041%=      5-min Rain = 0
KDO1 100122Z 23003KT 04/M08 A3035 RMK A01 T00401079  RH  041%=      5-min Rain = 0
KDO1 100123Z 23003KT 04/M08 A3035 RMK A01 T00401079  RH  042%=      5-min Rain = 0
KDO1 100124Z 23003KT 04/M08 A3035 RMK A01 T00401078  RH  042%=      5-min Rain = 0
KDO1 100125Z 23003KT 04/M08 A3035 RMK A01 T00391079  RH  042%=      5-min Rain = 0
KDO1 100126Z 23003KT 04/M08 A3035 RMK A01 T00391079  RH  042%=      5-min Rain = 0
KDO1 100127Z 23003KT 04/M08 A3035 RMK A01 T00391079  RH  042%=      5-min Rain = 0
KDO1 100128Z 23003KT 04/M08 A3035 RMK A01 T00391079  RH  042%=      5-min Rain = 0
KDO1 100129Z 23002KT 04/M08 A3035 RMK A01 T00381079  RH  042%=      5-min Rain = 0
KDO1 100130Z 23002KT 04/M08 A3035 RMK A01 T00371079  RH  042%=      5-min Rain = 0
KDO1 100131Z 22002KT 04/M08 A3035 RMK A01 T00361079  RH  043%=      5-min Rain = 0
KDO1 100132Z 22002KT 04/M08 A3035 RMK A01 T00351079  RH  043%=      5-min Rain = 0
KDO1 100133Z 22002KT 03/M08 A3035 RMK A01 T00321077  RH  045%=      5-min Rain = 0
KDO1 100134Z 23002KT 03/M08 A3035 RMK A01 T00291078  RH  045%=      5-min Rain = 0
KDO1 100135Z 23001KT 03/M08 A3035 RMK A01 T00281079  RH  045%=      5-min Rain = 0
KDO1 100136Z 22002KT 03/M08 A3035 RMK A01 T00291080  RH  044%=      5-min Rain = 0
KDO1 100137Z 21002KT 03/M08 A3035 RMK A01 T00301081  RH  044%=      5-min Rain = 0
KDO1 100138Z 21002KT 03/M08 A3035 RMK A01 T00311080  RH  044%=      5-min Rain = 0
KDO1 100139Z 21002KT 03/M08 A3035 RMK A01 T00311080  RH  044%=      5-min Rain = 0
KDO1 100140Z 20002KT 03/M08 A3035 RMK A01 T00311080  RH  044%=      5-min Rain = 0
KDO1 100141Z 20002KT 03/M08 A3035 RMK A01 T00311079  RH  044%=      5-min Rain = 0
KDO1 100142Z 20002KT 03/M08 A3035 RMK A01 T00291079  RH  045%=      5-min Rain = 0
KDO1 100143Z 20002KT 03/M08 A3035 RMK A01 T00281078  RH  046%=      5-min Rain = 0
KDO1 100144Z 20002KT 03/M08 A3034 RMK A01 T00261078  RH  046%=      5-min Rain = 0
KDO1 100145Z 20003KT 02/M08 A3034 RMK A01 T00241078  RH  047%=      5-min Rain = 0
KDO1 100146Z 21003KT 02/M08 A3034 RMK A01 T00231078  RH  047%=      5-min Rain = 0
KDO1 100147Z 21003KT 02/M08 A3034 RMK A01 T00231079  RH  047%=      5-min Rain = 0
KDO1 100148Z 22003KT 02/M08 A3035 RMK A01 T00231078  RH  047%=      5-min Rain = 0
KDO1 100149Z 22003KT 02/M08 A3035 RMK A01 T00231077  RH  047%=      5-min Rain = 0
KDO1 100150Z 23003KT 02/M08 A3035 RMK A01 T00221077  RH  048%=      5-min Rain = 0
KDO1 100151Z 24003KT 02/M08 A3035 RMK A01 T00211077  RH  048%=      5-min Rain = 0
KDO1 100152Z 25003KT 02/M08 A3035 RMK A01 T00201077  RH  049%=      5-min Rain = 0
KDO1 100153Z 24004KT 02/M08 A3035 RMK A01 T00191077  RH  049%=      5-min Rain = 0
KDO1 100154Z 25004KT 02/M08 A3035 RMK A01 T00191078  RH  049%=      5-min Rain = 0
KDO1 100155Z 25004KT 02/M08 A3035 RMK A01 T00201078  RH  048%=      5-min Rain = 0
KDO1 100156Z 25004KT 02/M08 A3035 RMK A01 T00221077  RH  048%=      5-min Rain = 0
KDO1 100157Z 25004KT 02/M08 A3035 RMK A01 T00231077  RH  047%=      5-min Rain = 0
KDO1 100158Z 25005KT 03/M08 A3035 RMK A01 T00251077  RH  047%=      5-min Rain = 0
KDO1 100159Z 25005KT 03/M08 A3035 RMK A01 T00261077  RH  047%=      5-min Rain = 0
KDO1 100200Z 25005KT 03/M08 A3035 RMK A01 T00261077  RH  047%=      5-min Rain = 0
KDO1 100201Z 25005KT 03/M08 A3035 RMK A01 T00261076  RH  047%=      5-min Rain = 0
KDO1 100202Z 25005KT 03/M08 A3035 RMK A01 T00261075  RH  047%=      5-min Rain = 0
KDO1 100203Z 25005KT 03/M07 A3035 RMK A01 T00261074  RH  048%=      5-min Rain = 0
KDO1 100204Z 25005KT 03/M07 A3035 RMK A01 T00251073  RH  048%=      5-min Rain = 0
KDO1 100205Z 25005KT 02/M07 A3035 RMK A01 T00241073  RH  049%=      5-min Rain = 0
KDO1 100206Z 25004KT 02/M07 A3035 RMK A01 T00231073  RH  049%=      5-min Rain = 0
KDO1 100207Z 26004KT 02/M07 A3035 RMK A01 T00231073  RH  049%=      5-min Rain = 0
KDO1 100208Z 26004KT 02/M07 A3035 RMK A01 T00231073  RH  049%=      5-min Rain = 0
KDO1 100209Z 28004KT 02/M07 A3035 RMK A01 T00221072  RH  050%=      5-min Rain = 0
KDO1 100210Z 29004KT 02/M07 A3035 RMK A01 T00191071  RH  051%=      5-min Rain = 0
KDO1 100211Z 29004KT 01/M07 A3035 RMK A01 T00141071  RH  053%=      5-min Rain = 0
KDO1 100212Z 29005KT 01/M07 A3036 RMK A01 T00101071  RH  055%=      5-min Rain = 0
KDO1 100213Z 29004KT 01/M07 A3036 RMK A01 T00101070  RH  055%=      5-min Rain = 0
KDO1 100214Z 29004KT 01/M07 A3036 RMK A01 T00121069  RH  055%=      5-min Rain = 0
KDO1 100215Z 29004KT 01/M07 A3036 RMK A01 T00141068  RH  054%=      5-min Rain = 0
KDO1 100216Z 29004KT 02/M07 A3036 RMK A01 T00151068  RH  054%=      5-min Rain = 0
KDO1 100217Z 29004KT 02/M07 A3036 RMK A01 T00161068  RH  053%=      5-min Rain = 0
KDO1 100218Z 30003KT 02/M07 A3036 RMK A01 T00191068  RH  053%=      5-min Rain = 0
KDO1 100219Z 30003KT 02/M07 A3036 RMK A01 T00191067  RH  053%=      5-min Rain = 0
KDO1 100220Z 30005KT 02/M07 A3036 RMK A01 T00191067  RH  053%=      5-min Rain = 0
KDO1 100221Z 30004KT 02/M07 A3036 RMK A01 T00181068  RH  053%=      5-min Rain = 0
KDO1 100222Z 29004KT 02/M07 A3036 RMK A01 T00191067  RH  053%=      5-min Rain = 0
KDO1 100223Z 29004KT 02/M07 A3036 RMK A01 T00191067  RH  053%=      5-min Rain = 0
KDO1 100224Z 29005KT 02/M07 A3036 RMK A01 T00201068  RH  052%=      5-min Rain = 0
KDO1 100225Z 29004KT 02/M07 A3036 RMK A01 T00201068  RH  052%=      5-min Rain = 0
KDO1 100226Z 29003KT 02/M07 A3036 RMK A01 T00201068  RH  052%=      5-min Rain = 0
KDO1 100227Z 30001KT 02/M07 A3036 RMK A01 T00201069  RH  052%=      5-min Rain = 0
KDO1 100228Z 29001KT 01/M08 A3035 RMK A01 T00141075  RH  052%=      5-min Rain = 0
KDO1 100229Z 00000KT 01/M08 A3035 RMK A01 T00071077  RH  053%=      5-min Rain = 0
KDO1 100230Z 31000KT 00/M08 A3035 RMK A01 T00031075  RH  056%=      5-min Rain = 0
KDO1 100231Z 30002KT 00/M07 A3035 RMK A01 T00031073  RH  057%=      5-min Rain = 0
KDO1 100232Z 30001KT 01/M07 A3035 RMK A01 T00051072  RH  056%=      5-min Rain = 0
KDO1 100233Z 31002KT 01/M07 A3035 RMK A01 T00091069  RH  056%=      5-min Rain = 0
KDO1 100234Z 29003KT 01/M07 A3035 RMK A01 T00131069  RH  055%=      5-min Rain = 0
KDO1 100235Z 30004KT 02/M07 A3035 RMK A01 T00161068  RH  054%=      5-min Rain = 0
KDO1 100236Z 30002KT 02/M07 A3036 RMK A01 T00181067  RH  053%=      5-min Rain = 0
KDO1 100237Z 31002KT 02/M07 A3036 RMK A01 T00161072  RH  052%=      5-min Rain = 0
KDO1 100238Z 31002KT 01/M08 A3036 RMK A01 T00111078  RH  051%=      5-min Rain = 0
KDO1 100239Z 31002KT 01/M08 A3036 RMK A01 T00071076  RH  054%=      5-min Rain = 0
KDO1 100240Z 32003KT 01/M07 A3036 RMK A01 T00061073  RH  055%=      5-min Rain = 0
KDO1 100241Z 32003KT 01/M07 A3036 RMK A01 T00061072  RH  056%=      5-min Rain = 0
KDO1 100242Z 35002KT 01/M07 A3036 RMK A01 T00051074  RH  055%=      5-min Rain = 0
KDO1 100243Z 00002KT 00/M07 A3036 RMK A01 T00041073  RH  056%=      5-min Rain = 0
KDO1 100244Z 34001KT 00/M07 A3036 RMK A01 T00041073  RH  056%=      5-min Rain = 0
KDO1 100245Z 32001KT 01/M08 A3036 RMK A01 T00051075  RH  055%=      5-min Rain = 0
KDO1 100246Z 32001KT 00/M08 A3036 RMK A01 T00041076  RH  055%=      5-min Rain = 0
KDO1 100247Z 32002KT 00/M08 A3036 RMK A01 T00031076  RH  055%=      5-min Rain = 0
KDO1 100248Z 31000KT 00/M08 A3036 RMK A01 T00031075  RH  056%=      5-min Rain = 0
KDO1 100249Z 34000KT 00/M07 A3036 RMK A01 T00041074  RH  056%=      5-min Rain = 0
KDO1 100250Z 34000KT 01/M07 A3036 RMK A01 T00051074  RH  055%=      5-min Rain = 0
KDO1 100251Z 32001KT 01/M08 A3035 RMK A01 T00051075  RH  055%=      5-min Rain = 0
KDO1 100252Z 33001KT 01/M08 A3035 RMK A01 T00051076  RH  055%=      5-min Rain = 0
KDO1 100253Z 33000KT 01/M08 A3035 RMK A01 T00051076  RH  055%=      5-min Rain = 0
KDO1 100254Z 00000KT 01/M08 A3035 RMK A01 T00051076  RH  055%=      5-min Rain = 0
KDO1 100255Z 33000KT 01/M08 A3035 RMK A01 T00051075  RH  055%=      5-min Rain = 0
KDO1 100256Z 00000KT 01/M08 A3035 RMK A01 T00051075  RH  055%=      5-min Rain = 0
KDO1 100257Z 15000KT 01/M08 A3035 RMK A01 T00051075  RH  055%=      5-min Rain = 0
KDO1 100258Z 16001KT 01/M08 A3035 RMK A01 T00051075  RH  055%=      5-min Rain = 0
KDO1 100259Z 16002KT 01/M08 A3035 RMK A01 T00051075  RH  055%=      5-min Rain = 0
KDO1 100300Z 17002KT 01/M07 A3035 RMK A01 T00051074  RH  055%=      5-min Rain = 0
KDO1 100301Z 18002KT 01/M07 A3035 RMK A01 T00061074  RH  055%=      5-min Rain = 0
KDO1 100302Z 22002KT 01/M08 A3035 RMK A01 T00051075  RH  055%=      5-min Rain = 0
KDO1 100303Z 25003KT 01/M08 A3035 RMK A01 T00051075  RH  055%=      5-min Rain = 0
KDO1 100304Z 25003KT 00/M08 A3035 RMK A01 T00041075  RH  056%=      5-min Rain = 0
KDO1 100305Z 26002KT 00/M08 A3035 RMK A01 T00021076  RH  056%=      5-min Rain = 0
KDO1 100306Z 26002KT M00/M08 A3035 RMK A01 T10031078  RH  057%=      5-min Rain = 0
KDO1 100307Z 26002KT M01/M08 A3035 RMK A01 T10061079  RH  058%=      5-min Rain = 0
KDO1 100308Z 26002KT M01/M08 A3035 RMK A01 T10081079  RH  059%=      5-min Rain = 0
KDO1 100309Z 26002KT M01/M08 A3035 RMK A01 T10091079  RH  059%=      5-min Rain = 0
KDO1 100310Z 26002KT M01/M08 A3035 RMK A01 T10091078  RH  059%=      5-min Rain = 0
KDO1 100311Z 26001KT M01/M08 A3035 RMK A01 T10091078  RH  060%=      5-min Rain = 0
KDO1 100312Z 28001KT M01/M08 A3035 RMK A01 T10091077  RH  060%=      5-min Rain = 0
KDO1 100313Z 27001KT M01/M08 A3035 RMK A01 T10091075  RH  061%=      5-min Rain = 0
KDO1 100314Z 28001KT M01/M07 A3035 RMK A01 T10071073  RH  061%=      5-min Rain = 0
KDO1 100315Z 30000KT M01/M07 A3035 RMK A01 T10071074  RH  060%=      5-min Rain = 0
KDO1 100316Z 00000KT M01/M07 A3035 RMK A01 T10061074  RH  060%=      5-min Rain = 0
KDO1 100317Z 35000KT M01/M07 A3035 RMK A01 T10061074  RH  060%=      5-min Rain = 0
KDO1 100318Z 34001KT M01/M08 A3035 RMK A01 T10061075  RH  060%=      5-min Rain = 0
KDO1 100319Z 32001KT M01/M08 A3035 RMK A01 T10071076  RH  060%=      5-min Rain = 0
KDO1 100320Z 34001KT M01/M08 A3035 RMK A01 T10081076  RH  060%=      5-min Rain = 0
KDO1 100321Z 34001KT M01/M08 A3035 RMK A01 T10081075  RH  060%=      5-min Rain = 0
KDO1 100322Z 36001KT M01/M07 A3035 RMK A01 T10081074  RH  061%=      5-min Rain = 0
KDO1 100323Z 03001KT M01/M07 A3035 RMK A01 T10071074  RH  060%=      5-min Rain = 0
KDO1 100324Z 03002KT M01/M07 A3035 RMK A01 T10071074  RH  060%=      5-min Rain = 0
KDO1 100325Z 03003KT M01/M07 A3035 RMK A01 T10071074  RH  060%=      5-min Rain = 0
KDO1 100326Z 02005KT M01/M07 A3036 RMK A01 T10071074  RH  060%=      5-min Rain = 0
KDO1 100327Z 01004KT M01/M07 A3036 RMK A01 T10071074  RH  060%=      5-min Rain = 0
KDO1 100328Z 01004KT M01/M07 A3036 RMK A01 T10071074  RH  060%=      5-min Rain = 0
KDO1 100329Z 00004KT M01/M08 A3035 RMK A01 T10081075  RH  060%=      5-min Rain = 0
KDO1 100330Z 00004KT M01/M08 A3035 RMK A01 T10081075  RH  061%=      5-min Rain = 0
KDO1 100331Z 35003KT M01/M08 A3035 RMK A01 T10091076  RH  061%=      5-min Rain = 0
KDO1 100332Z 34003KT M01/M08 A3035 RMK A01 T10101076  RH  061%=      5-min Rain = 0
KDO1 100333Z 34003KT M01/M08 A3035 RMK A01 T10111076  RH  061%=      5-min Rain = 0
KDO1 100334Z 32002KT M01/M08 A3035 RMK A01 T10121076  RH  062%=      5-min Rain = 0
KDO1 100335Z 34002KT M01/M08 A3035 RMK A01 T10131076  RH  062%=      5-min Rain = 0
KDO1 100336Z 36002KT M01/M08 A3035 RMK A01 T10131076  RH  062%=      5-min Rain = 0
KDO1 100337Z 00001KT M01/M08 A3035 RMK A01 T10131076  RH  062%=      5-min Rain = 0
KDO1 100338Z 00001KT M01/M08 A3035 RMK A01 T10131075  RH  063%=      5-min Rain = 0
KDO1 100339Z 00001KT M01/M08 A3035 RMK A01 T10131075  RH  063%=      5-min Rain = 0
KDO1 100340Z 34001KT M01/M08 A3035 RMK A01 T10131075  RH  062%=      5-min Rain = 0
KDO1 100341Z 33001KT M01/M08 A3035 RMK A01 T10121075  RH  062%=      5-min Rain = 0
KDO1 100342Z 32001KT M01/M08 A3035 RMK A01 T10121075  RH  062%=      5-min Rain = 0
KDO1 100343Z 29001KT M01/M07 A3036 RMK A01 T10101074  RH  062%=      5-min Rain = 0
KDO1 100344Z 28001KT M01/M08 A3036 RMK A01 T10101075  RH  061%=      5-min Rain = 0
KDO1 100345Z 25001KT M01/M08 A3036 RMK A01 T10121076  RH  062%=      5-min Rain = 0
KDO1 100346Z 00000KT M01/M08 A3036 RMK A01 T10131076  RH  062%=      5-min Rain = 0
KDO1 100347Z 00000KT M01/M08 A3036 RMK A01 T10131076  RH  062%=      5-min Rain = 0
KDO1 100348Z 00000KT M01/M08 A3036 RMK A01 T10141077  RH  062%=      5-min Rain = 0
KDO1 100349Z 30000KT M01/M08 A3036 RMK A01 T10141076  RH  063%=      5-min Rain = 0
KDO1 100350Z 26001KT M01/M08 A3036 RMK A01 T10131075  RH  063%=      5-min Rain = 0
KDO1 100351Z 25000KT M01/M08 A3036 RMK A01 T10121075  RH  062%=      5-min Rain = 0
KDO1 100352Z 00000KT M01/M08 A3036 RMK A01 T10111075  RH  062%=      5-min Rain = 0
KDO1 100353Z 26000KT M01/M07 A3036 RMK A01 T10111074  RH  062%=      5-min Rain = 0
KDO1 100354Z 26000KT M01/M07 A3036 RMK A01 T10111074  RH  062%=      5-min Rain = 0
KDO1 100355Z 00000KT M01/M07 A3036 RMK A01 T10121074  RH  062%=      5-min Rain = 0
KDO1 100356Z 25000KT M01/M07 A3036 RMK A01 T10121074  RH  063%=      5-min Rain = 0
KDO1 100357Z 00000KT M01/M07 A3036 RMK A01 T10111074  RH  063%=      5-min Rain = 0
KDO1 100358Z 00000KT M01/M07 A3036 RMK A01 T10081072  RH  062%=      5-min Rain = 0
KDO1 100359Z 04000KT M01/M07 A3036 RMK A01 T10061072  RH  061%=      5-min Rain = 0
KDO1 100400Z 02001KT M00/M07 A3036 RMK A01 T10021071  RH  059%=      5-min Rain = 0
KDO1 100401Z 02001KT 00/M07 A3036 RMK A01 T00021071  RH  058%=      5-min Rain = 0
KDO1 100402Z 35001KT 00/M07 A3036 RMK A01 T00031070  RH  058%=      5-min Rain = 0
KDO1 100403Z 34001KT 00/M07 A3036 RMK A01 T00031070  RH  058%=      5-min Rain = 0
KDO1 100404Z 35002KT 00/M07 A3036 RMK A01 T00031070  RH  058%=      5-min Rain = 0
KDO1 100405Z 33002KT 00/M07 A3036 RMK A01 T00021071  RH  058%=      5-min Rain = 0
KDO1 100406Z 33002KT 00/07 A3036 RMK A01 T00000-71  RH  059%=      5-min Rain = 0
KDO1 100407Z 32003KT M00/M07 A3036 RMK A01 T10011071  RH  059%=      5-min Rain = 0
KDO1 100408Z 32003KT M00/M07 A3036 RMK A01 T10021071  RH  060%=      5-min Rain = 0
KDO1 100409Z 32003KT M00/M07 A3036 RMK A01 T10031071  RH  060%=      5-min Rain = 0
KDO1 100410Z 32004KT M00/M07 A3036 RMK A01 T10041071  RH  061%=      5-min Rain = 0
KDO1 100411Z 31005KT M01/M07 A3036 RMK A01 T10051071  RH  061%=      5-min Rain = 0
KDO1 100412Z 31005KT M01/M07 A3036 RMK A01 T10061071  RH  061%=      5-min Rain = 0
KDO1 100413Z 32005KT M00/M07 A3036 RMK A01 T10021069  RH  061%=      5-min Rain = 0
KDO1 100414Z 32005KT 00/M07 A3036 RMK A01 T00021069  RH  059%=      5-min Rain = 0
KDO1 100415Z 32005KT 00/M07 A3036 RMK A01 T00041069  RH  058%=      5-min Rain = 0
KDO1 100416Z 31005KT 00/M07 A3036 RMK A01 T00041069  RH  058%=      5-min Rain = 0
KDO1 100417Z 31005KT 01/M07 A3036 RMK A01 T00061069  RH  057%=      5-min Rain = 0
KDO1 100418Z 31005KT 01/M07 A3036 RMK A01 T00101068  RH  056%=      5-min Rain = 0
KDO1 100419Z 31004KT 01/M07 A3037 RMK A01 T00131068  RH  055%=      5-min Rain = 0
KDO1 100420Z 31004KT 01/M07 A3037 RMK A01 T00131068  RH  055%=      5-min Rain = 0
KDO1 100421Z 30004KT 01/M07 A3037 RMK A01 T00121069  RH  054%=      5-min Rain = 0
KDO1 100422Z 29003KT 01/M07 A3037 RMK A01 T00121070  RH  054%=      5-min Rain = 0
KDO1 100423Z 26002KT 01/M07 A3037 RMK A01 T00101071  RH  055%=      5-min Rain = 0
KDO1 100424Z 19004KT 00/M08 A3037 RMK A01 T00021076  RH  056%=      5-min Rain = 0
KDO1 100425Z 20003KT M01/M08 A3037 RMK A01 T10091079  RH  059%=      5-min Rain = 0
KDO1 100426Z 23002KT M01/M08 A3037 RMK A01 T10141079  RH  061%=      5-min Rain = 0
KDO1 100427Z 24001KT M02/M08 A3036 RMK A01 T10161077  RH  063%=      5-min Rain = 0
KDO1 100428Z 25001KT M02/M08 A3036 RMK A01 T10161075  RH  064%=      5-min Rain = 0
KDO1 100429Z 25001KT M02/M08 A3036 RMK A01 T10151075  RH  064%=      5-min Rain = 0
KDO1 100430Z 25001KT M02/M07 A3036 RMK A01 T10151074  RH  064%=      5-min Rain = 0
KDO1 100431Z 25002KT M02/M07 A3036 RMK A01 T10151074  RH  064%=      5-min Rain = 0
KDO1 100432Z 26002KT M02/M08 A3036 RMK A01 T10151075  RH  064%=      5-min Rain = 0
KDO1 100433Z 29003KT M02/M08 A3036 RMK A01 T10161075  RH  064%=      5-min Rain = 0
KDO1 100434Z 31003KT M02/M07 A3036 RMK A01 T10161074  RH  064%=      5-min Rain = 0
KDO1 100435Z 31004KT M02/M07 A3036 RMK A01 T10151073  RH  065%=      5-min Rain = 0
KDO1 100436Z 32005KT M01/M07 A3036 RMK A01 T10121071  RH  064%=      5-min Rain = 0
KDO1 100437Z 32005KT M01/M07 A3036 RMK A01 T10091069  RH  063%=      5-min Rain = 0
KDO1 100438Z 32006KT M01/M07 A3036 RMK A01 T10071069  RH  063%=      5-min Rain = 0
KDO1 100439Z 32006KT M01/M07 A3036 RMK A01 T10051069  RH  062%=      5-min Rain = 0
KDO1 100440Z 32004KT 00/07 A3036 RMK A01 T00000-67  RH  061%=      5-min Rain = 0
KDO1 100441Z 32003KT 00/07 A3036 RMK A01 T00000-68  RH  060%=      5-min Rain = 0
KDO1 100442Z 32002KT M00/M07 A3036 RMK A01 T10021072  RH  059%=      5-min Rain = 0
KDO1 100443Z 33002KT M01/M07 A3036 RMK A01 T10051074  RH  060%=      5-min Rain = 0
KDO1 100444Z 33002KT M01/M07 A3036 RMK A01 T10071073  RH  061%=      5-min Rain = 0
KDO1 100445Z 33003KT M01/M07 A3036 RMK A01 T10091073  RH  062%=      5-min Rain = 0
KDO1 100446Z 34002KT M01/M07 A3036 RMK A01 T10091074  RH  062%=      5-min Rain = 0
KDO1 100447Z 36002KT M01/M07 A3036 RMK A01 T10111074  RH  062%=      5-min Rain = 0
KDO1 100448Z 01002KT M01/M07 A3036 RMK A01 T10111074  RH  062%=      5-min Rain = 0
KDO1 100449Z 35003KT M01/M07 A3036 RMK A01 T10111074  RH  062%=      5-min Rain = 0
KDO1 100450Z 34002KT M01/M07 A3036 RMK A01 T10101073  RH  062%=      5-min Rain = 0
KDO1 100451Z 34002KT M01/M07 A3036 RMK A01 T10091073  RH  062%=      5-min Rain = 0
KDO1 100452Z 33003KT M01/M07 A3036 RMK A01 T10071073  RH  061%=      5-min Rain = 0
KDO1 100453Z 32002KT M01/M07 A3036 RMK A01 T10071073  RH  061%=      5-min Rain = 0
KDO1 100454Z 32002KT M01/M07 A3036 RMK A01 T10071073  RH  061%=      5-min Rain = 0
KDO1 100455Z 32001KT M01/M07 A3036 RMK A01 T10071073  RH  061%=      5-min Rain = 0
KDO1 100456Z 16001KT M01/M07 A3036 RMK A01 T10081074  RH  061%=      5-min Rain = 0
KDO1 100457Z 15001KT M01/M07 A3036 RMK A01 T10081074  RH  061%=      5-min Rain = 0
KDO1 100458Z 20001KT M01/M07 A3036 RMK A01 T10091074  RH  061%=      5-min Rain = 0
KDO1 100459Z 30001KT M01/M07 A3036 RMK A01 T10101074  RH  062%=      5-min Rain = 0
KDO1 100500Z 31002KT M01/M07 A3036 RMK A01 T10101074  RH  062%=      5-min Rain = 0
KDO1 100501Z 32003KT M01/M07 A3036 RMK A01 T10081071  RH  062%=      5-min Rain = 0
KDO1 100502Z 32003KT M00/M07 A3036 RMK A01 T10031069  RH  061%=      5-min Rain = 0
KDO1 100503Z 32004KT M00/M07 A3036 RMK A01 T10011070  RH  060%=      5-min Rain = 0
KDO1 100504Z 31003KT 00/07 A3036 RMK A01 T00000-70  RH  059%=      5-min Rain = 0
KDO1 100505Z 31004KT 00/M07 A3036 RMK A01 T00011070  RH  059%=      5-min Rain = 0
KDO1 100506Z 31004KT 00/M07 A3036 RMK A01 T00021070  RH  059%=      5-min Rain = 0
KDO1 100507Z 32004KT 00/M07 A3036 RMK A01 T00041069  RH  058%=      5-min Rain = 0
KDO1 100508Z 31004KT 01/M07 A3036 RMK A01 T00051069  RH  058%=      5-min Rain = 0
KDO1 100509Z 31003KT 00/M07 A3036 RMK A01 T00041070  RH  058%=      5-min Rain = 0
KDO1 100510Z 31003KT 00/M07 A3036 RMK A01 T00041070  RH  058%=      5-min Rain = 0
KDO1 100511Z 31003KT 00/M07 A3036 RMK A01 T00041070  RH  058%=      5-min Rain = 0
KDO1 100512Z 33003KT 00/M07 A3036 RMK A01 T00041070  RH  058%=      5-min Rain = 0
KDO1 100513Z 34003KT 00/M07 A3036 RMK A01 T00041070  RH  058%=      5-min Rain = 0
KDO1 100514Z 35001KT 00/M07 A3036 RMK A01 T00041071  RH  057%=      5-min Rain = 0
KDO1 100515Z 01001KT 00/M07 A3036 RMK A01 T00021073  RH  057%=      5-min Rain = 0
KDO1 100516Z 00001KT 00/07 A3036 RMK A01 T00-00-73  RH  058%=      5-min Rain = 0
KDO1 100517Z 01001KT M00/M07 A3036 RMK A01 T10021074  RH  058%=      5-min Rain = 0
KDO1 100518Z 36001KT M00/M07 A3036 RMK A01 T10031073  RH  059%=      5-min Rain = 0
KDO1 100519Z 29001KT M00/M07 A3036 RMK A01 T10031074  RH  059%=      5-min Rain = 0
KDO1 100520Z 32001KT M00/M07 A3036 RMK A01 T10041074  RH  059%=      5-min Rain = 0
KDO1 100521Z 29001KT M01/M07 A3036 RMK A01 T10061074  RH  060%=      5-min Rain = 0
KDO1 100522Z 31002KT M01/M07 A3036 RMK A01 T10061074  RH  060%=      5-min Rain = 0
KDO1 100523Z 29001KT M01/M07 A3036 RMK A01 T10061073  RH  061%=      5-min Rain = 0
KDO1 100524Z 29001KT M00/M07 A3036 RMK A01 T10041072  RH  060%=      5-min Rain = 0
KDO1 100525Z 21001KT M00/M07 A3036 RMK A01 T10041072  RH  060%=      5-min Rain = 0
KDO1 100526Z 22002KT M00/M07 A3036 RMK A01 T10031071  RH  060%=      5-min Rain = 0
KDO1 100527Z 26003KT M00/M07 A3036 RMK A01 T10031071  RH  060%=      5-min Rain = 0
KDO1 100528Z 27004KT M00/M07 A3035 RMK A01 T10031071  RH  060%=      5-min Rain = 0
KDO1 100529Z 28004KT M00/M07 A3035 RMK A01 T10021070  RH  060%=      5-min Rain = 0
KDO1 100530Z 27004KT M00/M07 A3035 RMK A01 T10021070  RH  060%=      5-min Rain = 0
KDO1 100531Z 27005KT M00/M07 A3035 RMK A01 T10011070  RH  060%=      5-min Rain = 0
KDO1 100532Z 27005KT M00/M07 A3035 RMK A01 T10021070  RH  060%=      5-min Rain = 0
KDO1 100533Z 27004KT M00/M07 A3035 RMK A01 T10021070  RH  060%=      5-min Rain = 0
KDO1 100534Z 27004KT M00/M07 A3036 RMK A01 T10021070  RH  060%=      5-min Rain = 0
KDO1 100535Z 27003KT M00/M07 A3036 RMK A01 T10031070  RH  061%=      5-min Rain = 0
KDO1 100536Z 29002KT M00/M07 A3036 RMK A01 T10041070  RH  061%=      5-min Rain = 0
KDO1 100537Z 36001KT M01/M07 A3036 RMK A01 T10051070  RH  061%=      5-min Rain = 0
KDO1 100538Z 00002KT M01/M07 A3036 RMK A01 T10051071  RH  061%=      5-min Rain = 0
KDO1 100539Z 34003KT M01/M07 A3036 RMK A01 T10051071  RH  061%=      5-min Rain = 0
KDO1 100540Z 32005KT M00/M07 A3036 RMK A01 T10041070  RH  061%=      5-min Rain = 0
KDO1 100541Z 32004KT M00/M07 A3036 RMK A01 T10021069  RH  061%=      5-min Rain = 0
KDO1 100542Z 31004KT 00/M07 A3036 RMK A01 T00011068  RH  060%=      5-min Rain = 0
KDO1 100543Z 32004KT 00/M07 A3036 RMK A01 T00021068  RH  059%=      5-min Rain = 0
KDO1 100544Z 32004KT 00/M07 A3035 RMK A01 T00041068  RH  059%=      5-min Rain = 0
KDO1 100545Z 32003KT 00/M07 A3035 RMK A01 T00041068  RH  058%=      5-min Rain = 0
KDO1 100546Z 33003KT 00/M07 A3035 RMK A01 T00041069  RH  058%=      5-min Rain = 0
KDO1 100547Z 32003KT 00/M07 A3035 RMK A01 T00041069  RH  058%=      5-min Rain = 0
KDO1 100548Z 32002KT 01/M07 A3035 RMK A01 T00051069  RH  058%=      5-min Rain = 0
KDO1 100549Z 34001KT 00/M07 A3035 RMK A01 T00031070  RH  058%=      5-min Rain = 0
KDO1 100550Z 35001KT 00/M07 A3035 RMK A01 T00021071  RH  058%=      5-min Rain = 0
KDO1 100551Z 33002KT 00/M07 A3035 RMK A01 T00011071  RH  058%=      5-min Rain = 0
KDO1 100552Z 32003KT 00/07 A3035 RMK A01 T00000-71  RH  059%=      5-min Rain = 0
KDO1 100553Z 32003KT 00/07 A3035 RMK A01 T00000-70  RH  059%=      5-min Rain = 0
KDO1 100554Z 32003KT 00/07 A3035 RMK A01 T00000-70  RH  059%=      5-min Rain = 0
KDO1 100555Z 32004KT 00/M07 A3035 RMK A01 T00011070  RH  059%=      5-min Rain = 0
KDO1 100556Z 32004KT 00/M07 A3035 RMK A01 T00031069  RH  059%=      5-min Rain = 0
KDO1 100557Z 32003KT 00/M07 A3035 RMK A01 T00041069  RH  058%=      5-min Rain = 0
KDO1 100558Z 31004KT 00/M07 A3035 RMK A01 T00041069  RH  058%=      5-min Rain = 0
KDO1 100559Z 31004KT 00/M07 A3035 RMK A01 T00031069  RH  058%=      5-min Rain = 0

Page generated in 0.1215 seconds.